<?xml version="1.0" encoding="utf-8"?>
<gpx xmlns:xsi="http://www.w3.org/2001/XMLSchema-instance" xmlns:xsd="http://www.w3.org/2001/XMLSchema" version="1.1" creator="Shapelink.com" xmlns="http://www.topografix.com/GPX/1/1" xmlns:gpxtpx="http://www.garmin.com/xmlschemas/TrackPointExtension/v1">
  <metadata>
    <name>Löpning 8.00 km, 2018-07-17</name>
    <desc></desc>
    <author><name>Stefan Östlund</name></author> 
    <time>2018-07-17T09:41:49Z</time>
  </metadata>
  <trk>
    <name>Löpning 8.00 km, 2018-07-17</name>
    <trkseg>
      <trkpt lat="62.31808455781" lon="17.443897810634">
        <ele>0</ele>
        <time>2018-07-17T09:41:49Z</time>
      </trkpt>
      <trkpt lat="62.318090844235" lon="17.443692118808">
        <ele>0</ele>
        <time>2018-07-17T09:41:54Z</time>
      </trkpt>
      <trkpt lat="62.318120851437" lon="17.443454575762">
        <ele>0</ele>
        <time>2018-07-17T09:42:00Z</time>
      </trkpt>
      <trkpt lat="62.318149517535" lon="17.443182583107">
        <ele>0</ele>
        <time>2018-07-17T09:42:06Z</time>
      </trkpt>
      <trkpt lat="62.318196288537" lon="17.442943279862">
        <ele>1</ele>
        <time>2018-07-17T09:42:12Z</time>
      </trkpt>
      <trkpt lat="62.318244316824" lon="17.44280346977">
        <ele>2.2</ele>
        <time>2018-07-17T09:42:16Z</time>
      </trkpt>
      <trkpt lat="62.318280191356" lon="17.442539691377">
        <ele>2.4</ele>
        <time>2018-07-17T09:42:22Z</time>
      </trkpt>
      <trkpt lat="62.318317993725" lon="17.442394349231">
        <ele>3.2</ele>
        <time>2018-07-17T09:42:26Z</time>
      </trkpt>
      <trkpt lat="62.318376415568" lon="17.442159991307">
        <ele>4.4</ele>
        <time>2018-07-17T09:42:32Z</time>
      </trkpt>
      <trkpt lat="62.318415978136" lon="17.441891686688">
        <ele>5.4</ele>
        <time>2018-07-17T09:42:38Z</time>
      </trkpt>
      <trkpt lat="62.318424946769" lon="17.441798228503">
        <ele>5.6</ele>
        <time>2018-07-17T09:42:40Z</time>
      </trkpt>
      <trkpt lat="62.318434669773" lon="17.441511148428">
        <ele>6.2</ele>
        <time>2018-07-17T09:42:46Z</time>
      </trkpt>
      <trkpt lat="62.318431903746" lon="17.441238066126">
        <ele>6.4</ele>
        <time>2018-07-17T09:42:52Z</time>
      </trkpt>
      <trkpt lat="62.318436262334" lon="17.441068584108">
        <ele>6.6</ele>
        <time>2018-07-17T09:42:56Z</time>
      </trkpt>
      <trkpt lat="62.318409607892" lon="17.440816372737">
        <ele>7.8</ele>
        <time>2018-07-17T09:43:02Z</time>
      </trkpt>
      <trkpt lat="62.318321430304" lon="17.440627193254">
        <ele>8.8</ele>
        <time>2018-07-17T09:43:08Z</time>
      </trkpt>
      <trkpt lat="62.318301481382" lon="17.440607831065">
        <ele>9.2</ele>
        <time>2018-07-17T09:43:09Z</time>
      </trkpt>
      <trkpt lat="62.318190253569" lon="17.44051688745">
        <ele>10.2</ele>
        <time>2018-07-17T09:43:14Z</time>
      </trkpt>
      <trkpt lat="62.318068380743" lon="17.44034757307">
        <ele>10.6</ele>
        <time>2018-07-17T09:43:20Z</time>
      </trkpt>
      <trkpt lat="62.318013227841" lon="17.440201392734">
        <ele>11.4</ele>
        <time>2018-07-17T09:43:24Z</time>
      </trkpt>
      <trkpt lat="62.317958913129" lon="17.439934932133">
        <ele>12.2</ele>
        <time>2018-07-17T09:43:30Z</time>
      </trkpt>
      <trkpt lat="62.317936952551" lon="17.439799145353">
        <ele>12.4</ele>
        <time>2018-07-17T09:43:33Z</time>
      </trkpt>
      <trkpt lat="62.317892696119" lon="17.439546095792">
        <ele>13.6</ele>
        <time>2018-07-17T09:43:39Z</time>
      </trkpt>
      <trkpt lat="62.317851792447" lon="17.439292878593">
        <ele>14</ele>
        <time>2018-07-17T09:43:45Z</time>
      </trkpt>
      <trkpt lat="62.317809044757" lon="17.439142004393">
        <ele>14.6</ele>
        <time>2018-07-17T09:43:49Z</time>
      </trkpt>
      <trkpt lat="62.317758585719" lon="17.439077799039">
        <ele>15.4</ele>
        <time>2018-07-17T09:43:52Z</time>
      </trkpt>
      <trkpt lat="62.317726902137" lon="17.43906933332">
        <ele>15.6</ele>
        <time>2018-07-17T09:43:54Z</time>
      </trkpt>
      <trkpt lat="62.317684489723" lon="17.439083331093">
        <ele>15.8</ele>
        <time>2018-07-17T09:44:05Z</time>
      </trkpt>
      <trkpt lat="62.317613075935" lon="17.439240156442">
        <ele>15.6</ele>
        <time>2018-07-17T09:44:10Z</time>
      </trkpt>
      <trkpt lat="62.317491789842" lon="17.439439729481">
        <ele>15</ele>
        <time>2018-07-17T09:44:16Z</time>
      </trkpt>
      <trkpt lat="62.317366480437" lon="17.439634021923">
        <ele>14.8</ele>
        <time>2018-07-17T09:44:22Z</time>
      </trkpt>
      <trkpt lat="62.317240081385" lon="17.43978766215">
        <ele>14.8</ele>
        <time>2018-07-17T09:44:28Z</time>
      </trkpt>
      <trkpt lat="62.317188281243" lon="17.439885981837">
        <ele>14.6</ele>
        <time>2018-07-17T09:44:31Z</time>
      </trkpt>
      <trkpt lat="62.317084513321" lon="17.440055463855">
        <ele>13.8</ele>
        <time>2018-07-17T09:44:37Z</time>
      </trkpt>
      <trkpt lat="62.317066827512" lon="17.440084465229">
        <ele>13.6</ele>
        <time>2018-07-17T09:44:38Z</time>
      </trkpt>
      <trkpt lat="62.316951241111" lon="17.440296275842">
        <ele>13</ele>
        <time>2018-07-17T09:44:44Z</time>
      </trkpt>
      <trkpt lat="62.316835822348" lon="17.440494591596">
        <ele>13</ele>
        <time>2018-07-17T09:44:50Z</time>
      </trkpt>
      <trkpt lat="62.316713781884" lon="17.440729284796">
        <ele>12.8</ele>
        <time>2018-07-17T09:44:56Z</time>
      </trkpt>
      <trkpt lat="62.316653432204" lon="17.44083623784">
        <ele>12.4</ele>
        <time>2018-07-17T09:44:59Z</time>
      </trkpt>
      <trkpt lat="62.316535331233" lon="17.441067075366">
        <ele>12</ele>
        <time>2018-07-17T09:45:05Z</time>
      </trkpt>
      <trkpt lat="62.316435586623" lon="17.441236557384">
        <ele>11.4</ele>
        <time>2018-07-17T09:45:11Z</time>
      </trkpt>
      <trkpt lat="62.316417481719" lon="17.441259859066">
        <ele>11.2</ele>
        <time>2018-07-17T09:45:12Z</time>
      </trkpt>
      <trkpt lat="62.316318323842" lon="17.441466472901">
        <ele>10.6</ele>
        <time>2018-07-17T09:45:18Z</time>
      </trkpt>
      <trkpt lat="62.316273145401" lon="17.441608294649">
        <ele>10.2</ele>
        <time>2018-07-17T09:45:21Z</time>
      </trkpt>
      <trkpt lat="62.316189074944" lon="17.441920268967">
        <ele>9</ele>
        <time>2018-07-17T09:45:27Z</time>
      </trkpt>
      <trkpt lat="62.316103579564" lon="17.442205337386">
        <ele>8</ele>
        <time>2018-07-17T09:45:33Z</time>
      </trkpt>
      <trkpt lat="62.316088408325" lon="17.442249509999">
        <ele>7.8</ele>
        <time>2018-07-17T09:45:34Z</time>
      </trkpt>
      <trkpt lat="62.315987993163" lon="17.442501637551">
        <ele>7</ele>
        <time>2018-07-17T09:45:40Z</time>
      </trkpt>
      <trkpt lat="62.315930912424" lon="17.442619822341">
        <ele>6.8</ele>
        <time>2018-07-17T09:45:43Z</time>
      </trkpt>
      <trkpt lat="62.315821612448" lon="17.442833812248">
        <ele>6.4</ele>
        <time>2018-07-17T09:45:49Z</time>
      </trkpt>
      <trkpt lat="62.315704265848" lon="17.443012765813">
        <ele>6</ele>
        <time>2018-07-17T09:45:55Z</time>
      </trkpt>
      <trkpt lat="62.315594630596" lon="17.443231365765">
        <ele>6</ele>
        <time>2018-07-17T09:46:01Z</time>
      </trkpt>
      <trkpt lat="62.315540902617" lon="17.443335804239">
        <ele>5.8</ele>
        <time>2018-07-17T09:46:04Z</time>
      </trkpt>
      <trkpt lat="62.31544174474" lon="17.443525067541">
        <ele>5</ele>
        <time>2018-07-17T09:46:10Z</time>
      </trkpt>
      <trkpt lat="62.315377958481" lon="17.443649119661">
        <ele>4.6</ele>
        <time>2018-07-17T09:46:13Z</time>
      </trkpt>
      <trkpt lat="62.315245524461" lon="17.443876604427">
        <ele>4.4</ele>
        <time>2018-07-17T09:46:19Z</time>
      </trkpt>
      <trkpt lat="62.315086268361" lon="17.444077267113">
        <ele>4.2</ele>
        <time>2018-07-17T09:46:25Z</time>
      </trkpt>
      <trkpt lat="62.314928856279" lon="17.444243731647">
        <ele>3.8</ele>
        <time>2018-07-17T09:46:31Z</time>
      </trkpt>
      <trkpt lat="62.314901028371" lon="17.444271559555">
        <ele>3.6</ele>
        <time>2018-07-17T09:46:32Z</time>
      </trkpt>
      <trkpt lat="62.314732468362" lon="17.444415225321">
        <ele>3.6</ele>
        <time>2018-07-17T09:46:38Z</time>
      </trkpt>
      <trkpt lat="62.314564327448" lon="17.444554867775">
        <ele>4.2</ele>
        <time>2018-07-17T09:46:44Z</time>
      </trkpt>
      <trkpt lat="62.31440658009" lon="17.444621922975">
        <ele>3.6</ele>
        <time>2018-07-17T09:46:50Z</time>
      </trkpt>
      <trkpt lat="62.314250090017" lon="17.444715213522">
        <ele>3.8</ele>
        <time>2018-07-17T09:46:56Z</time>
      </trkpt>
      <trkpt lat="62.31410566988" lon="17.44484865337">
        <ele>3.8</ele>
        <time>2018-07-17T09:47:02Z</time>
      </trkpt>
      <trkpt lat="62.314014810084" lon="17.444931466542">
        <ele>3.4</ele>
        <time>2018-07-17T09:47:06Z</time>
      </trkpt>
      <trkpt lat="62.313859744934" lon="17.445044370735">
        <ele>3.6</ele>
        <time>2018-07-17T09:47:12Z</time>
      </trkpt>
      <trkpt lat="62.313690262916" lon="17.445095332687">
        <ele>4.2</ele>
        <time>2018-07-17T09:47:18Z</time>
      </trkpt>
      <trkpt lat="62.313520948536" lon="17.445160376231">
        <ele>4</ele>
        <time>2018-07-17T09:47:24Z</time>
      </trkpt>
      <trkpt lat="62.313388933611" lon="17.445219887721">
        <ele>4</ele>
        <time>2018-07-17T09:47:30Z</time>
      </trkpt>
      <trkpt lat="62.313258846523" lon="17.445322565996">
        <ele>4</ele>
        <time>2018-07-17T09:47:36Z</time>
      </trkpt>
      <trkpt lat="62.313126580141" lon="17.445415772724">
        <ele>4</ele>
        <time>2018-07-17T09:47:42Z</time>
      </trkpt>
      <trkpt lat="62.312967491679" lon="17.44556279125">
        <ele>4</ele>
        <time>2018-07-17T09:47:48Z</time>
      </trkpt>
      <trkpt lat="62.31279893167" lon="17.445696985469">
        <ele>3.8</ele>
        <time>2018-07-17T09:47:54Z</time>
      </trkpt>
      <trkpt lat="62.312625929254" lon="17.44580670454">
        <ele>3.6</ele>
        <time>2018-07-17T09:48:00Z</time>
      </trkpt>
      <trkpt lat="62.312477569624" lon="17.445872670093">
        <ele>3</ele>
        <time>2018-07-17T09:48:06Z</time>
      </trkpt>
      <trkpt lat="62.312313116746" lon="17.446011725814">
        <ele>2.8</ele>
        <time>2018-07-17T09:48:14Z</time>
      </trkpt>
      <trkpt lat="62.312245474813" lon="17.446080038299">
        <ele>2.4</ele>
        <time>2018-07-17T09:48:17Z</time>
      </trkpt>
      <trkpt lat="62.312106167635" lon="17.446197720175">
        <ele>1.4</ele>
        <time>2018-07-17T09:48:23Z</time>
      </trkpt>
      <trkpt lat="62.312080854297" lon="17.446214651613">
        <ele>1.4</ele>
        <time>2018-07-17T09:48:24Z</time>
      </trkpt>
      <trkpt lat="62.311911456098" lon="17.446315653508">
        <ele>1</ele>
        <time>2018-07-17T09:48:30Z</time>
      </trkpt>
      <trkpt lat="62.311751277989" lon="17.4464135541">
        <ele>1.2</ele>
        <time>2018-07-17T09:48:36Z</time>
      </trkpt>
      <trkpt lat="62.311606354938" lon="17.446544814654">
        <ele>1.2</ele>
        <time>2018-07-17T09:48:42Z</time>
      </trkpt>
      <trkpt lat="62.311477608954" lon="17.446684121832">
        <ele>1.6</ele>
        <time>2018-07-17T09:48:48Z</time>
      </trkpt>
      <trkpt lat="62.311346516038" lon="17.446812364902">
        <ele>1.8</ele>
        <time>2018-07-17T09:48:54Z</time>
      </trkpt>
      <trkpt lat="62.311276443354" lon="17.446898782291">
        <ele>2.4</ele>
        <time>2018-07-17T09:48:57Z</time>
      </trkpt>
      <trkpt lat="62.31113847728" lon="17.447064240997">
        <ele>3</ele>
        <time>2018-07-17T09:49:03Z</time>
      </trkpt>
      <trkpt lat="62.311103608576" lon="17.447113191293">
        <ele>3.6</ele>
        <time>2018-07-17T09:49:05Z</time>
      </trkpt>
      <trkpt lat="62.310995817342" lon="17.447291055211">
        <ele>4.6</ele>
        <time>2018-07-17T09:49:11Z</time>
      </trkpt>
      <trkpt lat="62.310962038285" lon="17.447349728511">
        <ele>4.8</ele>
        <time>2018-07-17T09:49:13Z</time>
      </trkpt>
      <trkpt lat="62.310881320588" lon="17.447454669899">
        <ele>5.8</ele>
        <time>2018-07-17T09:49:17Z</time>
      </trkpt>
      <trkpt lat="62.310747126369" lon="17.447586768643">
        <ele>6.4</ele>
        <time>2018-07-17T09:49:23Z</time>
      </trkpt>
      <trkpt lat="62.310663391188" lon="17.447678131353">
        <ele>7</ele>
        <time>2018-07-17T09:49:27Z</time>
      </trkpt>
      <trkpt lat="62.310520144517" lon="17.447799249808">
        <ele>7.8</ele>
        <time>2018-07-17T09:49:33Z</time>
      </trkpt>
      <trkpt lat="62.310454849516" lon="17.447840404937">
        <ele>8</ele>
        <time>2018-07-17T09:49:35Z</time>
      </trkpt>
      <trkpt lat="62.310326690265" lon="17.447974934432">
        <ele>8.6</ele>
        <time>2018-07-17T09:49:41Z</time>
      </trkpt>
      <trkpt lat="62.310194256245" lon="17.448128993754">
        <ele>8.8</ele>
        <time>2018-07-17T09:49:47Z</time>
      </trkpt>
      <trkpt lat="62.310121417534" lon="17.448206693967">
        <ele>9.2</ele>
        <time>2018-07-17T09:49:50Z</time>
      </trkpt>
      <trkpt lat="62.310006334047" lon="17.448346839335">
        <ele>10.4</ele>
        <time>2018-07-17T09:49:55Z</time>
      </trkpt>
      <trkpt lat="62.309873145656" lon="17.448513387688">
        <ele>11.4</ele>
        <time>2018-07-17T09:50:01Z</time>
      </trkpt>
      <trkpt lat="62.30983341545" lon="17.448592596643">
        <ele>11.6</ele>
        <time>2018-07-17T09:50:03Z</time>
      </trkpt>
      <trkpt lat="62.309727468234" lon="17.448778171909">
        <ele>12.4</ele>
        <time>2018-07-17T09:50:09Z</time>
      </trkpt>
      <trkpt lat="62.309604421942" lon="17.448989395789">
        <ele>11.6</ele>
        <time>2018-07-17T09:50:15Z</time>
      </trkpt>
      <trkpt lat="62.309473496664" lon="17.449206570818">
        <ele>11.2</ele>
        <time>2018-07-17T09:50:21Z</time>
      </trkpt>
      <trkpt lat="62.309338967169" lon="17.44938996679">
        <ele>11</ele>
        <time>2018-07-17T09:50:27Z</time>
      </trkpt>
      <trkpt lat="62.309207119882" lon="17.449609656389">
        <ele>10.6</ele>
        <time>2018-07-17T09:50:33Z</time>
      </trkpt>
      <trkpt lat="62.309165629477" lon="17.449681321634">
        <ele>10.6</ele>
        <time>2018-07-17T09:50:35Z</time>
      </trkpt>
      <trkpt lat="62.309072925663" lon="17.449927414218">
        <ele>10.4</ele>
        <time>2018-07-17T09:50:41Z</time>
      </trkpt>
      <trkpt lat="62.309009726137" lon="17.450211225352">
        <ele>11</ele>
        <time>2018-07-17T09:50:47Z</time>
      </trkpt>
      <trkpt lat="62.308948370629" lon="17.450518421987">
        <ele>10.6</ele>
        <time>2018-07-17T09:50:53Z</time>
      </trkpt>
      <trkpt lat="62.308879722868" lon="17.450831485952">
        <ele>9.6</ele>
        <time>2018-07-17T09:50:59Z</time>
      </trkpt>
      <trkpt lat="62.308814260229" lon="17.451116889647">
        <ele>8.4</ele>
        <time>2018-07-17T09:51:05Z</time>
      </trkpt>
      <trkpt lat="62.308747707943" lon="17.451479323003">
        <ele>7.4</ele>
        <time>2018-07-17T09:51:11Z</time>
      </trkpt>
      <trkpt lat="62.308705798443" lon="17.45163212504">
        <ele>6.2</ele>
        <time>2018-07-17T09:51:14Z</time>
      </trkpt>
      <trkpt lat="62.308639665252" lon="17.451882073298">
        <ele>5.2</ele>
        <time>2018-07-17T09:51:19Z</time>
      </trkpt>
      <trkpt lat="62.308562970867" lon="17.452198406204">
        <ele>4.8</ele>
        <time>2018-07-17T09:51:25Z</time>
      </trkpt>
      <trkpt lat="62.308468087759" lon="17.45245774219">
        <ele>4.4</ele>
        <time>2018-07-17T09:51:31Z</time>
      </trkpt>
      <trkpt lat="62.30839340503" lon="17.452732333234">
        <ele>4.8</ele>
        <time>2018-07-17T09:51:37Z</time>
      </trkpt>
      <trkpt lat="62.308334396454" lon="17.452991501582">
        <ele>4.2</ele>
        <time>2018-07-17T09:51:43Z</time>
      </trkpt>
      <trkpt lat="62.308319057577" lon="17.453136843728">
        <ele>3.8</ele>
        <time>2018-07-17T09:51:46Z</time>
      </trkpt>
      <trkpt lat="62.308474625641" lon="17.453194343562">
        <ele>0</ele>
        <time>2018-07-17T10:01:28Z</time>
      </trkpt>
      <trkpt lat="62.308444199344" lon="17.453222758203">
        <ele>0.4</ele>
        <time>2018-07-17T10:01:30Z</time>
      </trkpt>
      <trkpt lat="62.308356943765" lon="17.453222674384">
        <ele>2.4</ele>
        <time>2018-07-17T10:01:34Z</time>
      </trkpt>
      <trkpt lat="62.308336743386" lon="17.453232565026">
        <ele>1.8</ele>
        <time>2018-07-17T10:01:35Z</time>
      </trkpt>
      <trkpt lat="62.308221324623" lon="17.453319066234">
        <ele>1.8</ele>
        <time>2018-07-17T10:01:41Z</time>
      </trkpt>
      <trkpt lat="62.308119652176" lon="17.453227619705">
        <ele>2.2</ele>
        <time>2018-07-17T10:01:47Z</time>
      </trkpt>
      <trkpt lat="62.307978333342" lon="17.453284365168">
        <ele>3</ele>
        <time>2018-07-17T10:01:53Z</time>
      </trkpt>
      <trkpt lat="62.307958719696" lon="17.453283526978">
        <ele>3</ele>
        <time>2018-07-17T10:01:54Z</time>
      </trkpt>
      <trkpt lat="62.307928628675" lon="17.453240946926">
        <ele>3</ele>
        <time>2018-07-17T10:01:56Z</time>
      </trkpt>
      <trkpt lat="62.307811952627" lon="17.453157966116">
        <ele>3</ele>
        <time>2018-07-17T10:02:02Z</time>
      </trkpt>
      <trkpt lat="62.307697623511" lon="17.453051096891">
        <ele>2.2</ele>
        <time>2018-07-17T10:02:08Z</time>
      </trkpt>
      <trkpt lat="62.307676417304" lon="17.45302771139">
        <ele>2.2</ele>
        <time>2018-07-17T10:02:09Z</time>
      </trkpt>
      <trkpt lat="62.307612714864" lon="17.453020922051">
        <ele>2.4</ele>
        <time>2018-07-17T10:02:12Z</time>
      </trkpt>
      <trkpt lat="62.307549263881" lon="17.453070207623">
        <ele>3.2</ele>
        <time>2018-07-17T10:02:15Z</time>
      </trkpt>
      <trkpt lat="62.307443651941" lon="17.45302519682">
        <ele>3.2</ele>
        <time>2018-07-17T10:02:21Z</time>
      </trkpt>
      <trkpt lat="62.307395036921" lon="17.452975156877">
        <ele>3.6</ele>
        <time>2018-07-17T10:02:24Z</time>
      </trkpt>
      <trkpt lat="62.307336531259" lon="17.452869209661">
        <ele>4.8</ele>
        <time>2018-07-17T10:02:29Z</time>
      </trkpt>
      <trkpt lat="62.307290263171" lon="17.452819253537">
        <ele>5.4</ele>
        <time>2018-07-17T10:02:32Z</time>
      </trkpt>
      <trkpt lat="62.30726268672" lon="17.452809614352">
        <ele>5.8</ele>
        <time>2018-07-17T10:02:34Z</time>
      </trkpt>
      <trkpt lat="62.307233601527" lon="17.452784971566">
        <ele>6.4</ele>
        <time>2018-07-17T10:02:36Z</time>
      </trkpt>
      <trkpt lat="62.307183813041" lon="17.452756389287">
        <ele>7.2</ele>
        <time>2018-07-17T10:02:39Z</time>
      </trkpt>
      <trkpt lat="62.307129246872" lon="17.45273434489">
        <ele>8.2</ele>
        <time>2018-07-17T10:02:42Z</time>
      </trkpt>
      <trkpt lat="62.307107453932" lon="17.452741972419">
        <ele>8.2</ele>
        <time>2018-07-17T10:02:43Z</time>
      </trkpt>
      <trkpt lat="62.306988011857" lon="17.452857726458">
        <ele>7.8</ele>
        <time>2018-07-17T10:02:49Z</time>
      </trkpt>
      <trkpt lat="62.30693914538" lon="17.45292293764">
        <ele>7.8</ele>
        <time>2018-07-17T10:02:52Z</time>
      </trkpt>
      <trkpt lat="62.306882316098" lon="17.45291623212">
        <ele>8.2</ele>
        <time>2018-07-17T10:02:56Z</time>
      </trkpt>
      <trkpt lat="62.306808723016" lon="17.452982616768">
        <ele>8.6</ele>
        <time>2018-07-17T10:03:00Z</time>
      </trkpt>
      <trkpt lat="62.30678491842" lon="17.453014970902">
        <ele>8.6</ele>
        <time>2018-07-17T10:03:02Z</time>
      </trkpt>
      <trkpt lat="62.306712079709" lon="17.453138520108">
        <ele>8.4</ele>
        <time>2018-07-17T10:03:07Z</time>
      </trkpt>
      <trkpt lat="62.306689867674" lon="17.453194259743">
        <ele>8.6</ele>
        <time>2018-07-17T10:03:09Z</time>
      </trkpt>
      <trkpt lat="62.306604288475" lon="17.453310600515">
        <ele>8.6</ele>
        <time>2018-07-17T10:03:15Z</time>
      </trkpt>
      <trkpt lat="62.306596241851" lon="17.453336668224">
        <ele>8.8</ele>
        <time>2018-07-17T10:03:16Z</time>
      </trkpt>
      <trkpt lat="62.306497922164" lon="17.453514196866">
        <ele>8.6</ele>
        <time>2018-07-17T10:03:22Z</time>
      </trkpt>
      <trkpt lat="62.306467412048" lon="17.453543784973">
        <ele>8.4</ele>
        <time>2018-07-17T10:03:24Z</time>
      </trkpt>
      <trkpt lat="62.306322069902" lon="17.453665741618">
        <ele>8.8</ele>
        <time>2018-07-17T10:03:30Z</time>
      </trkpt>
      <trkpt lat="62.306224839862" lon="17.453824578623">
        <ele>9.4</ele>
        <time>2018-07-17T10:03:36Z</time>
      </trkpt>
      <trkpt lat="62.306120904302" lon="17.454067737542">
        <ele>8.6</ele>
        <time>2018-07-17T10:03:42Z</time>
      </trkpt>
      <trkpt lat="62.306098524629" lon="17.454092883242">
        <ele>8.2</ele>
        <time>2018-07-17T10:03:43Z</time>
      </trkpt>
      <trkpt lat="62.306076731689" lon="17.454115849648">
        <ele>7.8</ele>
        <time>2018-07-17T10:03:44Z</time>
      </trkpt>
      <trkpt lat="62.305959720365" lon="17.454301592552">
        <ele>7</ele>
        <time>2018-07-17T10:03:50Z</time>
      </trkpt>
      <trkpt lat="62.305816389875" lon="17.454494376252">
        <ele>6.6</ele>
        <time>2018-07-17T10:03:56Z</time>
      </trkpt>
      <trkpt lat="62.305669958082" lon="17.454628486652">
        <ele>6.4</ele>
        <time>2018-07-17T10:04:02Z</time>
      </trkpt>
      <trkpt lat="62.305558981726" lon="17.454798220127">
        <ele>6.4</ele>
        <time>2018-07-17T10:04:08Z</time>
      </trkpt>
      <trkpt lat="62.305481952065" lon="17.455047078738">
        <ele>5.8</ele>
        <time>2018-07-17T10:04:14Z</time>
      </trkpt>
      <trkpt lat="62.305413136666" lon="17.45521287272">
        <ele>4.8</ele>
        <time>2018-07-17T10:04:19Z</time>
      </trkpt>
      <trkpt lat="62.305347674027" lon="17.455499701338">
        <ele>3.8</ele>
        <time>2018-07-17T10:04:25Z</time>
      </trkpt>
      <trkpt lat="62.305375250478" lon="17.455701286033">
        <ele>2.6</ele>
        <time>2018-07-17T10:04:29Z</time>
      </trkpt>
      <trkpt lat="62.305411795562" lon="17.455909911524">
        <ele>1.2</ele>
        <time>2018-07-17T10:04:33Z</time>
      </trkpt>
      <trkpt lat="62.305404251852" lon="17.456092804582">
        <ele>0</ele>
        <time>2018-07-17T10:04:36Z</time>
      </trkpt>
      <trkpt lat="62.305357816126" lon="17.45625139013">
        <ele>0</ele>
        <time>2018-07-17T10:04:39Z</time>
      </trkpt>
      <trkpt lat="62.305276008782" lon="17.456574680013">
        <ele>0</ele>
        <time>2018-07-17T10:04:45Z</time>
      </trkpt>
      <trkpt lat="62.305264106484" lon="17.456929318202">
        <ele>0</ele>
        <time>2018-07-17T10:04:51Z</time>
      </trkpt>
      <trkpt lat="62.305299897197" lon="17.45723542519">
        <ele>0</ele>
        <time>2018-07-17T10:04:57Z</time>
      </trkpt>
      <trkpt lat="62.305346165285" lon="17.457553769752">
        <ele>0</ele>
        <time>2018-07-17T10:05:03Z</time>
      </trkpt>
      <trkpt lat="62.305401234368" lon="17.457826013864">
        <ele>0</ele>
        <time>2018-07-17T10:05:09Z</time>
      </trkpt>
      <trkpt lat="62.305443143868" lon="17.458049726775">
        <ele>0</ele>
        <time>2018-07-17T10:05:15Z</time>
      </trkpt>
      <trkpt lat="62.305451609587" lon="17.458092474465">
        <ele>0.2</ele>
        <time>2018-07-17T10:05:16Z</time>
      </trkpt>
      <trkpt lat="62.30545554908" lon="17.458180735872">
        <ele>1.2</ele>
        <time>2018-07-17T10:05:18Z</time>
      </trkpt>
      <trkpt lat="62.305418165806" lon="17.458442502609">
        <ele>2.2</ele>
        <time>2018-07-17T10:05:24Z</time>
      </trkpt>
      <trkpt lat="62.305415986512" lon="17.458471001069">
        <ele>2.4</ele>
        <time>2018-07-17T10:05:25Z</time>
      </trkpt>
      <trkpt lat="62.305350942968" lon="17.458641488915">
        <ele>3.2</ele>
        <time>2018-07-17T10:05:31Z</time>
      </trkpt>
      <trkpt lat="62.305335604091" lon="17.458670574108">
        <ele>3.4</ele>
        <time>2018-07-17T10:05:32Z</time>
      </trkpt>
      <trkpt lat="62.305275505868" lon="17.458863273989">
        <ele>4.4</ele>
        <time>2018-07-17T10:05:37Z</time>
      </trkpt>
      <trkpt lat="62.305195374904" lon="17.459120765957">
        <ele>5</ele>
        <time>2018-07-17T10:05:43Z</time>
      </trkpt>
      <trkpt lat="62.305113902836" lon="17.459230149752">
        <ele>5.6</ele>
        <time>2018-07-17T10:05:47Z</time>
      </trkpt>
      <trkpt lat="62.304987671422" lon="17.459242303507">
        <ele>6.6</ele>
        <time>2018-07-17T10:05:53Z</time>
      </trkpt>
      <trkpt lat="62.304917934014" lon="17.459184384578">
        <ele>7.6</ele>
        <time>2018-07-17T10:05:57Z</time>
      </trkpt>
      <trkpt lat="62.304866133872" lon="17.459158652145">
        <ele>8.8</ele>
        <time>2018-07-17T10:06:00Z</time>
      </trkpt>
      <trkpt lat="62.304786002908" lon="17.459187234424">
        <ele>10</ele>
        <time>2018-07-17T10:06:04Z</time>
      </trkpt>
      <trkpt lat="62.304658095114" lon="17.459245237172">
        <ele>11.2</ele>
        <time>2018-07-17T10:06:10Z</time>
      </trkpt>
      <trkpt lat="62.304542005799" lon="17.459404493272">
        <ele>12.2</ele>
        <time>2018-07-17T10:06:16Z</time>
      </trkpt>
      <trkpt lat="62.304444524302" lon="17.459620243378">
        <ele>13.2</ele>
        <time>2018-07-17T10:06:22Z</time>
      </trkpt>
      <trkpt lat="62.304428347235" lon="17.459652513693">
        <ele>13.4</ele>
        <time>2018-07-17T10:06:23Z</time>
      </trkpt>
      <trkpt lat="62.304384426079" lon="17.459759131461">
        <ele>14.6</ele>
        <time>2018-07-17T10:06:26Z</time>
      </trkpt>
      <trkpt lat="62.304317119422" lon="17.4599335588">
        <ele>15.8</ele>
        <time>2018-07-17T10:06:31Z</time>
      </trkpt>
      <trkpt lat="62.304283591822" lon="17.460018970361">
        <ele>17</ele>
        <time>2018-07-17T10:06:34Z</time>
      </trkpt>
      <trkpt lat="62.304236988458" lon="17.460164983059">
        <ele>18.4</ele>
        <time>2018-07-17T10:06:38Z</time>
      </trkpt>
      <trkpt lat="62.304184098669" lon="17.460412416747">
        <ele>18.8</ele>
        <time>2018-07-17T10:06:44Z</time>
      </trkpt>
      <trkpt lat="62.304149397603" lon="17.46070217903">
        <ele>18.4</ele>
        <time>2018-07-17T10:06:50Z</time>
      </trkpt>
      <trkpt lat="62.304096591633" lon="17.461022954343">
        <ele>18</ele>
        <time>2018-07-17T10:06:56Z</time>
      </trkpt>
      <trkpt lat="62.304028362967" lon="17.461306011106">
        <ele>17.2</ele>
        <time>2018-07-17T10:07:02Z</time>
      </trkpt>
      <trkpt lat="62.303949405469" lon="17.46156719111">
        <ele>16.4</ele>
        <time>2018-07-17T10:07:08Z</time>
      </trkpt>
      <trkpt lat="62.303937922266" lon="17.461615554673">
        <ele>16.2</ele>
        <time>2018-07-17T10:07:09Z</time>
      </trkpt>
      <trkpt lat="62.303866424659" lon="17.461888636975">
        <ele>16</ele>
        <time>2018-07-17T10:07:15Z</time>
      </trkpt>
      <trkpt lat="62.303804566237" lon="17.46216565877">
        <ele>15.2</ele>
        <time>2018-07-17T10:07:21Z</time>
      </trkpt>
      <trkpt lat="62.30378755098" lon="17.462200946569">
        <ele>15</ele>
        <time>2018-07-17T10:07:22Z</time>
      </trkpt>
      <trkpt lat="62.303686297628" lon="17.462240425318">
        <ele>15.4</ele>
        <time>2018-07-17T10:07:28Z</time>
      </trkpt>
      <trkpt lat="62.303644639585" lon="17.462179991819">
        <ele>16.4</ele>
        <time>2018-07-17T10:07:31Z</time>
      </trkpt>
      <trkpt lat="62.303630390355" lon="17.462154343205">
        <ele>16.6</ele>
        <time>2018-07-17T10:07:32Z</time>
      </trkpt>
      <trkpt lat="62.303597030393" lon="17.462063734866">
        <ele>17.6</ele>
        <time>2018-07-17T10:07:35Z</time>
      </trkpt>
      <trkpt lat="62.303570543589" lon="17.461879416885">
        <ele>18.8</ele>
        <time>2018-07-17T10:07:40Z</time>
      </trkpt>
      <trkpt lat="62.303538440912" lon="17.461699792768">
        <ele>20</ele>
        <time>2018-07-17T10:07:45Z</time>
      </trkpt>
      <trkpt lat="62.303501225276" lon="17.461608932972">
        <ele>21</ele>
        <time>2018-07-17T10:07:48Z</time>
      </trkpt>
      <trkpt lat="62.30344389308" lon="17.46155713283">
        <ele>22.2</ele>
        <time>2018-07-17T10:07:51Z</time>
      </trkpt>
      <trkpt lat="62.303347836506" lon="17.461595354294">
        <ele>23.4</ele>
        <time>2018-07-17T10:07:56Z</time>
      </trkpt>
      <trkpt lat="62.303252031389" lon="17.461714964007">
        <ele>24.6</ele>
        <time>2018-07-17T10:08:02Z</time>
      </trkpt>
      <trkpt lat="62.303214815753" lon="17.461759052801">
        <ele>25.8</ele>
        <time>2018-07-17T10:08:05Z</time>
      </trkpt>
      <trkpt lat="62.303202745817" lon="17.461762405561">
        <ele>26.2</ele>
        <time>2018-07-17T10:08:06Z</time>
      </trkpt>
      <trkpt lat="62.303166787466" lon="17.461743378648">
        <ele>27</ele>
        <time>2018-07-17T10:08:08Z</time>
      </trkpt>
      <trkpt lat="62.303117669532" lon="17.461703229347">
        <ele>28.2</ele>
        <time>2018-07-17T10:08:11Z</time>
      </trkpt>
      <trkpt lat="62.303047848305" lon="17.461614548845">
        <ele>29.2</ele>
        <time>2018-07-17T10:08:15Z</time>
      </trkpt>
      <trkpt lat="62.30298205039" lon="17.461518408452">
        <ele>30.4</ele>
        <time>2018-07-17T10:08:19Z</time>
      </trkpt>
      <trkpt lat="62.302950953541" lon="17.461230909282">
        <ele>31.2</ele>
        <time>2018-07-17T10:08:25Z</time>
      </trkpt>
      <trkpt lat="62.302916839208" lon="17.460918599688">
        <ele>31.2</ele>
        <time>2018-07-17T10:08:31Z</time>
      </trkpt>
      <trkpt lat="62.302897644657" lon="17.460824973865">
        <ele>31.4</ele>
        <time>2018-07-17T10:08:33Z</time>
      </trkpt>
      <trkpt lat="62.302833187846" lon="17.460543090568">
        <ele>31</ele>
        <time>2018-07-17T10:08:39Z</time>
      </trkpt>
      <trkpt lat="62.302762612248" lon="17.460292639396">
        <ele>31.4</ele>
        <time>2018-07-17T10:08:45Z</time>
      </trkpt>
      <trkpt lat="62.302658341412" lon="17.460155595331">
        <ele>32</ele>
        <time>2018-07-17T10:08:51Z</time>
      </trkpt>
      <trkpt lat="62.302548287065" lon="17.460013941221">
        <ele>32.6</ele>
        <time>2018-07-17T10:08:57Z</time>
      </trkpt>
      <trkpt lat="62.302432030112" lon="17.45988829654">
        <ele>32.8</ele>
        <time>2018-07-17T10:09:03Z</time>
      </trkpt>
      <trkpt lat="62.302315437883" lon="17.459722418739">
        <ele>33</ele>
        <time>2018-07-17T10:09:09Z</time>
      </trkpt>
      <trkpt lat="62.302205802631" lon="17.45956224063">
        <ele>33.4</ele>
        <time>2018-07-17T10:09:15Z</time>
      </trkpt>
      <trkpt lat="62.302106058021" lon="17.459376749183">
        <ele>32.8</ele>
        <time>2018-07-17T10:09:21Z</time>
      </trkpt>
      <trkpt lat="62.302024921229" lon="17.459240543308">
        <ele>31.2</ele>
        <time>2018-07-17T10:09:25Z</time>
      </trkpt>
      <trkpt lat="62.301964571549" lon="17.459137026843">
        <ele>30.2</ele>
        <time>2018-07-17T10:09:28Z</time>
      </trkpt>
      <trkpt lat="62.301889553544" lon="17.458988499575">
        <ele>29</ele>
        <time>2018-07-17T10:09:32Z</time>
      </trkpt>
      <trkpt lat="62.301782265224" lon="17.458760763352">
        <ele>28.8</ele>
        <time>2018-07-17T10:09:38Z</time>
      </trkpt>
      <trkpt lat="62.301692411256" lon="17.458487513412">
        <ele>29.2</ele>
        <time>2018-07-17T10:09:44Z</time>
      </trkpt>
      <trkpt lat="62.301571963353" lon="17.458338064135">
        <ele>29.6</ele>
        <time>2018-07-17T10:09:50Z</time>
      </trkpt>
      <trkpt lat="62.301478002254" lon="17.458394893417">
        <ele>30.2</ele>
        <time>2018-07-17T10:09:54Z</time>
      </trkpt>
      <trkpt lat="62.301436008935" lon="17.458464547006">
        <ele>31.2</ele>
        <time>2018-07-17T10:09:56Z</time>
      </trkpt>
      <trkpt lat="62.301305921847" lon="17.458678201637">
        <ele>32.2</ele>
        <time>2018-07-17T10:10:02Z</time>
      </trkpt>
      <trkpt lat="62.301288236038" lon="17.458716087825">
        <ele>32.4</ele>
        <time>2018-07-17T10:10:03Z</time>
      </trkpt>
      <trkpt lat="62.301168626325" lon="17.458936028881">
        <ele>33</ele>
        <time>2018-07-17T10:10:09Z</time>
      </trkpt>
      <trkpt lat="62.301089501189" lon="17.459167536959">
        <ele>32.8</ele>
        <time>2018-07-17T10:10:15Z</time>
      </trkpt>
      <trkpt lat="62.300988750751" lon="17.459391333689">
        <ele>32.4</ele>
        <time>2018-07-17T10:10:21Z</time>
      </trkpt>
      <trkpt lat="62.300870063047" lon="17.459575400213">
        <ele>32.2</ele>
        <time>2018-07-17T10:10:27Z</time>
      </trkpt>
      <trkpt lat="62.300735449733" lon="17.459723759843">
        <ele>32</ele>
        <time>2018-07-17T10:10:33Z</time>
      </trkpt>
      <trkpt lat="62.300604524455" lon="17.459883770314">
        <ele>31.6</ele>
        <time>2018-07-17T10:10:39Z</time>
      </trkpt>
      <trkpt lat="62.300558675462" lon="17.459987119141">
        <ele>31.4</ele>
        <time>2018-07-17T10:10:42Z</time>
      </trkpt>
      <trkpt lat="62.300414422963" lon="17.460461199405">
        <ele>30.4</ele>
        <time>2018-07-17T10:10:52Z</time>
      </trkpt>
      <trkpt lat="62.300400928104" lon="17.460509982063">
        <ele>30.2</ele>
        <time>2018-07-17T10:10:53Z</time>
      </trkpt>
      <trkpt lat="62.300322808796" lon="17.460819609449">
        <ele>29.6</ele>
        <time>2018-07-17T10:10:59Z</time>
      </trkpt>
      <trkpt lat="62.300278971459" lon="17.46096034155">
        <ele>29.2</ele>
        <time>2018-07-17T10:11:02Z</time>
      </trkpt>
      <trkpt lat="62.300174868261" lon="17.461255300611">
        <ele>28.4</ele>
        <time>2018-07-17T10:11:08Z</time>
      </trkpt>
      <trkpt lat="62.300057437842" lon="17.461537519184">
        <ele>28.2</ele>
        <time>2018-07-17T10:11:14Z</time>
      </trkpt>
      <trkpt lat="62.299952077359" lon="17.461769530176">
        <ele>27.4</ele>
        <time>2018-07-17T10:11:20Z</time>
      </trkpt>
      <trkpt lat="62.299915448456" lon="17.461831723874">
        <ele>26.8</ele>
        <time>2018-07-17T10:11:22Z</time>
      </trkpt>
      <trkpt lat="62.299802711901" lon="17.462001289711">
        <ele>25.6</ele>
        <time>2018-07-17T10:11:27Z</time>
      </trkpt>
      <trkpt lat="62.29967203808" lon="17.462231959599">
        <ele>24.6</ele>
        <time>2018-07-17T10:11:33Z</time>
      </trkpt>
      <trkpt lat="62.299589811641" lon="17.462376379736">
        <ele>23.4</ele>
        <time>2018-07-17T10:11:37Z</time>
      </trkpt>
      <trkpt lat="62.299482439502" lon="17.462455253415">
        <ele>22.4</ele>
        <time>2018-07-17T10:11:41Z</time>
      </trkpt>
      <trkpt lat="62.299345395437" lon="17.462506885919">
        <ele>21.2</ele>
        <time>2018-07-17T10:11:46Z</time>
      </trkpt>
      <trkpt lat="62.2991842115" lon="17.46256882816">
        <ele>20.6</ele>
        <time>2018-07-17T10:11:52Z</time>
      </trkpt>
      <trkpt lat="62.29903501368" lon="17.462514094353">
        <ele>20.4</ele>
        <time>2018-07-17T10:11:58Z</time>
      </trkpt>
      <trkpt lat="62.298968377575" lon="17.462485931169">
        <ele>20.2</ele>
        <time>2018-07-17T10:12:01Z</time>
      </trkpt>
      <trkpt lat="62.298814402072" lon="17.462418540693">
        <ele>20</ele>
        <time>2018-07-17T10:12:07Z</time>
      </trkpt>
      <trkpt lat="62.298687835382" lon="17.462247885209">
        <ele>19.6</ele>
        <time>2018-07-17T10:12:13Z</time>
      </trkpt>
      <trkpt lat="62.298636957249" lon="17.462209412288">
        <ele>19.2</ele>
        <time>2018-07-17T10:12:15Z</time>
      </trkpt>
      <trkpt lat="62.298481640642" lon="17.462112433705">
        <ele>18.2</ele>
        <time>2018-07-17T10:12:21Z</time>
      </trkpt>
      <trkpt lat="62.298361360377" lon="17.461957955288">
        <ele>18.2</ele>
        <time>2018-07-17T10:12:27Z</time>
      </trkpt>
      <trkpt lat="62.298346189138" lon="17.461917470711">
        <ele>18</ele>
        <time>2018-07-17T10:12:28Z</time>
      </trkpt>
      <trkpt lat="62.29823370404" lon="17.461689483031">
        <ele>17</ele>
        <time>2018-07-17T10:12:34Z</time>
      </trkpt>
      <trkpt lat="62.298213000747" lon="17.461652518852">
        <ele>17</ele>
        <time>2018-07-17T10:12:35Z</time>
      </trkpt>
      <trkpt lat="62.298114261965" lon="17.461521509755">
        <ele>16</ele>
        <time>2018-07-17T10:12:41Z</time>
      </trkpt>
      <trkpt lat="62.298090792645" lon="17.461434170357">
        <ele>15.8</ele>
        <time>2018-07-17T10:12:43Z</time>
      </trkpt>
      <trkpt lat="62.298044189281" lon="17.461257228448">
        <ele>15</ele>
        <time>2018-07-17T10:12:47Z</time>
      </trkpt>
      <trkpt lat="62.298023150712" lon="17.461158824942">
        <ele>14.6</ele>
        <time>2018-07-17T10:12:49Z</time>
      </trkpt>
      <trkpt lat="62.297927177957" lon="17.460858250008">
        <ele>13.8</ele>
        <time>2018-07-17T10:12:55Z</time>
      </trkpt>
      <trkpt lat="62.297876048367" lon="17.460774850103">
        <ele>13.6</ele>
        <time>2018-07-17T10:12:57Z</time>
      </trkpt>
      <trkpt lat="62.297725928538" lon="17.460630010871">
        <ele>12.6</ele>
        <time>2018-07-17T10:13:03Z</time>
      </trkpt>
      <trkpt lat="62.297699274096" lon="17.460600255126">
        <ele>12.6</ele>
        <time>2018-07-17T10:13:05Z</time>
      </trkpt>
      <trkpt lat="62.297574299967" lon="17.46053118827">
        <ele>11.4</ele>
        <time>2018-07-17T10:13:10Z</time>
      </trkpt>
      <trkpt lat="62.297474052443" lon="17.460493888815">
        <ele>10.4</ele>
        <time>2018-07-17T10:13:14Z</time>
      </trkpt>
      <trkpt lat="62.297370116883" lon="17.460456002627">
        <ele>9.4</ele>
        <time>2018-07-17T10:13:18Z</time>
      </trkpt>
      <trkpt lat="62.297263247658" lon="17.460453990971">
        <ele>8.2</ele>
        <time>2018-07-17T10:13:22Z</time>
      </trkpt>
      <trkpt lat="62.297182529961" lon="17.460432617126">
        <ele>7</ele>
        <time>2018-07-17T10:13:26Z</time>
      </trkpt>
      <trkpt lat="62.29704347424" lon="17.460345193909">
        <ele>6.2</ele>
        <time>2018-07-17T10:13:32Z</time>
      </trkpt>
      <trkpt lat="62.296956218661" lon="17.460273528664">
        <ele>6</ele>
        <time>2018-07-17T10:13:35Z</time>
      </trkpt>
      <trkpt lat="62.296934090445" lon="17.460228350223">
        <ele>5.8</ele>
        <time>2018-07-17T10:13:36Z</time>
      </trkpt>
      <trkpt lat="62.296894192601" lon="17.459896846078">
        <ele>5</ele>
        <time>2018-07-17T10:13:42Z</time>
      </trkpt>
      <trkpt lat="62.296895701343" lon="17.459617058256">
        <ele>5</ele>
        <time>2018-07-17T10:13:47Z</time>
      </trkpt>
      <trkpt lat="62.296918667749" lon="17.459301731178">
        <ele>5.4</ele>
        <time>2018-07-17T10:13:53Z</time>
      </trkpt>
      <trkpt lat="62.296930150952" lon="17.458949859016">
        <ele>5.6</ele>
        <time>2018-07-17T10:13:59Z</time>
      </trkpt>
      <trkpt lat="62.296926798192" lon="17.458831422769">
        <ele>6</ele>
        <time>2018-07-17T10:14:01Z</time>
      </trkpt>
      <trkpt lat="62.296938951947" lon="17.45847762277">
        <ele>6.4</ele>
        <time>2018-07-17T10:14:07Z</time>
      </trkpt>
      <trkpt lat="62.296951860073" lon="17.458243348665">
        <ele>7</ele>
        <time>2018-07-17T10:14:11Z</time>
      </trkpt>
      <trkpt lat="62.296968623873" lon="17.457894410168">
        <ele>7</ele>
        <time>2018-07-17T10:14:17Z</time>
      </trkpt>
      <trkpt lat="62.296985806768" lon="17.457551674277">
        <ele>6.6</ele>
        <time>2018-07-17T10:14:23Z</time>
      </trkpt>
      <trkpt lat="62.296985806768" lon="17.457271215903">
        <ele>6</ele>
        <time>2018-07-17T10:14:28Z</time>
      </trkpt>
      <trkpt lat="62.296981867275" lon="17.456958654852">
        <ele>5.4</ele>
        <time>2018-07-17T10:14:34Z</time>
      </trkpt>
      <trkpt lat="62.296973485375" lon="17.456803841159">
        <ele>5</ele>
        <time>2018-07-17T10:14:37Z</time>
      </trkpt>
      <trkpt lat="62.296939957775" lon="17.456475019222">
        <ele>4.6</ele>
        <time>2018-07-17T10:14:43Z</time>
      </trkpt>
      <trkpt lat="62.296922607242" lon="17.456132031874">
        <ele>4.6</ele>
        <time>2018-07-17T10:14:49Z</time>
      </trkpt>
      <trkpt lat="62.296910872582" lon="17.455894824104">
        <ele>3.8</ele>
        <time>2018-07-17T10:14:53Z</time>
      </trkpt>
      <trkpt lat="62.2968875709" lon="17.455662896931">
        <ele>2.6</ele>
        <time>2018-07-17T10:14:57Z</time>
      </trkpt>
      <trkpt lat="62.296848092151" lon="17.455314796624">
        <ele>2</ele>
        <time>2018-07-17T10:15:03Z</time>
      </trkpt>
      <trkpt lat="62.296795705276" lon="17.454967366869">
        <ele>2</ele>
        <time>2018-07-17T10:15:09Z</time>
      </trkpt>
      <trkpt lat="62.296758322002" lon="17.454632258507">
        <ele>2.6</ele>
        <time>2018-07-17T10:15:15Z</time>
      </trkpt>
      <trkpt lat="62.296725884049" lon="17.454324810415">
        <ele>2.4</ele>
        <time>2018-07-17T10:15:21Z</time>
      </trkpt>
      <trkpt lat="62.296657236288" lon="17.454049967914">
        <ele>1.8</ele>
        <time>2018-07-17T10:15:27Z</time>
      </trkpt>
      <trkpt lat="62.296634856615" lon="17.453959024299">
        <ele>1.6</ele>
        <time>2018-07-17T10:15:29Z</time>
      </trkpt>
      <trkpt lat="62.29658330793" lon="17.453651827664">
        <ele>1</ele>
        <time>2018-07-17T10:15:35Z</time>
      </trkpt>
      <trkpt lat="62.296536201652" lon="17.453317138397">
        <ele>0.8</ele>
        <time>2018-07-17T10:15:41Z</time>
      </trkpt>
      <trkpt lat="62.296516923282" lon="17.453204653299">
        <ele>0.6</ele>
        <time>2018-07-17T10:15:43Z</time>
      </trkpt>
      <trkpt lat="62.296454478127" lon="17.452877507742">
        <ele>0.8</ele>
        <time>2018-07-17T10:15:49Z</time>
      </trkpt>
      <trkpt lat="62.296392032972" lon="17.452578776826">
        <ele>0.4</ele>
        <time>2018-07-17T10:15:55Z</time>
      </trkpt>
      <trkpt lat="62.296320283908" lon="17.452256157495">
        <ele>0</ele>
        <time>2018-07-17T10:16:01Z</time>
      </trkpt>
      <trkpt lat="62.296260520961" lon="17.451927838472">
        <ele>0</ele>
        <time>2018-07-17T10:16:07Z</time>
      </trkpt>
      <trkpt lat="62.29619941691" lon="17.451620222742">
        <ele>0</ele>
        <time>2018-07-17T10:16:13Z</time>
      </trkpt>
      <trkpt lat="62.296148203501" lon="17.451307410234">
        <ele>0</ele>
        <time>2018-07-17T10:16:19Z</time>
      </trkpt>
      <trkpt lat="62.296086931812" lon="17.450992334613">
        <ele>0</ele>
        <time>2018-07-17T10:16:25Z</time>
      </trkpt>
      <trkpt lat="62.295991210514" lon="17.450554883252">
        <ele>0</ele>
        <time>2018-07-17T10:16:34Z</time>
      </trkpt>
      <trkpt lat="62.296008225771" lon="17.450570389767">
        <ele>0.2</ele>
        <time>2018-07-17T10:16:36Z</time>
      </trkpt>
      <trkpt lat="62.29604183719" lon="17.450682958684">
        <ele>0.4</ele>
        <time>2018-07-17T10:16:39Z</time>
      </trkpt>
      <trkpt lat="62.296076035342" lon="17.450993172803">
        <ele>0.2</ele>
        <time>2018-07-17T10:16:45Z</time>
      </trkpt>
      <trkpt lat="62.296094224065" lon="17.451155530206">
        <ele>0</ele>
        <time>2018-07-17T10:16:48Z</time>
      </trkpt>
      <trkpt lat="62.29614912551" lon="17.4514762217">
        <ele>0</ele>
        <time>2018-07-17T10:16:54Z</time>
      </trkpt>
      <trkpt lat="62.296181982558" lon="17.451581246907">
        <ele>0</ele>
        <time>2018-07-17T10:16:56Z</time>
      </trkpt>
      <trkpt lat="62.296242835152" lon="17.451911996681">
        <ele>0</ele>
        <time>2018-07-17T10:17:02Z</time>
      </trkpt>
      <trkpt lat="62.296294300018" lon="17.45221885804">
        <ele>0</ele>
        <time>2018-07-17T10:17:08Z</time>
      </trkpt>
      <trkpt lat="62.296358002458" lon="17.452540555362">
        <ele>0</ele>
        <time>2018-07-17T10:17:14Z</time>
      </trkpt>
      <trkpt lat="62.296419693242" lon="17.452852278223">
        <ele>0</ele>
        <time>2018-07-17T10:17:20Z</time>
      </trkpt>
      <trkpt lat="62.296490352659" lon="17.453139945031">
        <ele>0</ele>
        <time>2018-07-17T10:17:26Z</time>
      </trkpt>
      <trkpt lat="62.296544332095" lon="17.453453931005">
        <ele>0.2</ele>
        <time>2018-07-17T10:17:32Z</time>
      </trkpt>
      <trkpt lat="62.296594120581" lon="17.453742436003">
        <ele>0.2</ele>
        <time>2018-07-17T10:17:38Z</time>
      </trkpt>
      <trkpt lat="62.296647513284" lon="17.45403186301">
        <ele>0.4</ele>
        <time>2018-07-17T10:17:44Z</time>
      </trkpt>
      <trkpt lat="62.296653212976" lon="17.454080980944">
        <ele>0.6</ele>
        <time>2018-07-17T10:17:45Z</time>
      </trkpt>
      <trkpt lat="62.296689087508" lon="17.454387171751">
        <ele>1.2</ele>
        <time>2018-07-17T10:17:51Z</time>
      </trkpt>
      <trkpt lat="62.296720854909" lon="17.45469654768">
        <ele>1.8</ele>
        <time>2018-07-17T10:17:57Z</time>
      </trkpt>
      <trkpt lat="62.296765698074" lon="17.455025788712">
        <ele>2.4</ele>
        <time>2018-07-17T10:18:03Z</time>
      </trkpt>
      <trkpt lat="62.296792939249" lon="17.455325357818">
        <ele>1.6</ele>
        <time>2018-07-17T10:18:09Z</time>
      </trkpt>
      <trkpt lat="62.296800231502" lon="17.455616293567">
        <ele>1.6</ele>
        <time>2018-07-17T10:18:15Z</time>
      </trkpt>
      <trkpt lat="62.296826131573" lon="17.455899517968">
        <ele>2.2</ele>
        <time>2018-07-17T10:18:21Z</time>
      </trkpt>
      <trkpt lat="62.296861922286" lon="17.456169331329">
        <ele>2.2</ele>
        <time>2018-07-17T10:18:27Z</time>
      </trkpt>
      <trkpt lat="62.296880949199" lon="17.456319451158">
        <ele>3</ele>
        <time>2018-07-17T10:18:30Z</time>
      </trkpt>
      <trkpt lat="62.29691020203" lon="17.456626396336">
        <ele>3.8</ele>
        <time>2018-07-17T10:18:36Z</time>
      </trkpt>
      <trkpt lat="62.296923445432" lon="17.456727817326">
        <ele>4</ele>
        <time>2018-07-17T10:18:38Z</time>
      </trkpt>
      <trkpt lat="62.29694205325" lon="17.457021100007">
        <ele>4.6</ele>
        <time>2018-07-17T10:18:44Z</time>
      </trkpt>
      <trkpt lat="62.296941885612" lon="17.457345060442">
        <ele>4.6</ele>
        <time>2018-07-17T10:18:50Z</time>
      </trkpt>
      <trkpt lat="62.296934425721" lon="17.457562738385">
        <ele>5</ele>
        <time>2018-07-17T10:18:54Z</time>
      </trkpt>
      <trkpt lat="62.296930234771" lon="17.457886363544">
        <ele>5.8</ele>
        <time>2018-07-17T10:19:00Z</time>
      </trkpt>
      <trkpt lat="62.296912381324" lon="17.458199762785">
        <ele>6</ele>
        <time>2018-07-17T10:19:06Z</time>
      </trkpt>
      <trkpt lat="62.296908441831" lon="17.458247204339">
        <ele>6</ele>
        <time>2018-07-17T10:19:07Z</time>
      </trkpt>
      <trkpt lat="62.29687332167" lon="17.458521711564">
        <ele>6.4</ele>
        <time>2018-07-17T10:19:13Z</time>
      </trkpt>
      <trkpt lat="62.296845409943" lon="17.458815832435">
        <ele>6.2</ele>
        <time>2018-07-17T10:19:19Z</time>
      </trkpt>
      <trkpt lat="62.296820012786" lon="17.459096793723">
        <ele>5.4</ele>
        <time>2018-07-17T10:19:25Z</time>
      </trkpt>
      <trkpt lat="62.296798136027" lon="17.459472805757">
        <ele>5.2</ele>
        <time>2018-07-17T10:19:31Z</time>
      </trkpt>
      <trkpt lat="62.296779276752" lon="17.459859295166">
        <ele>5.2</ele>
        <time>2018-07-17T10:19:37Z</time>
      </trkpt>
      <trkpt lat="62.296766620083" lon="17.460045960079">
        <ele>5</ele>
        <time>2018-07-17T10:19:40Z</time>
      </trkpt>
      <trkpt lat="62.296759579287" lon="17.460198091564">
        <ele>4.8</ele>
        <time>2018-07-17T10:19:43Z</time>
      </trkpt>
      <trkpt lat="62.296863179571" lon="17.460346702651">
        <ele>5</ele>
        <time>2018-07-17T10:19:49Z</time>
      </trkpt>
      <trkpt lat="62.297002151473" lon="17.460390791445">
        <ele>6</ele>
        <time>2018-07-17T10:19:55Z</time>
      </trkpt>
      <trkpt lat="62.297021597481" lon="17.460388528332">
        <ele>6.2</ele>
        <time>2018-07-17T10:19:56Z</time>
      </trkpt>
      <trkpt lat="62.297157970994" lon="17.460406633236">
        <ele>7</ele>
        <time>2018-07-17T10:20:02Z</time>
      </trkpt>
      <trkpt lat="62.297183368151" lon="17.460413087299">
        <ele>7.2</ele>
        <time>2018-07-17T10:20:03Z</time>
      </trkpt>
      <trkpt lat="62.297349078314" lon="17.460432952402">
        <ele>8</ele>
        <time>2018-07-17T10:20:09Z</time>
      </trkpt>
      <trkpt lat="62.297375732756" lon="17.46043312004">
        <ele>8.2</ele>
        <time>2018-07-17T10:20:10Z</time>
      </trkpt>
      <trkpt lat="62.297503724369" lon="17.460431359841">
        <ele>9.4</ele>
        <time>2018-07-17T10:20:15Z</time>
      </trkpt>
      <trkpt lat="62.29761595801" lon="17.460443597415">
        <ele>10.6</ele>
        <time>2018-07-17T10:20:20Z</time>
      </trkpt>
      <trkpt lat="62.297739758673" lon="17.460500342878">
        <ele>11.8</ele>
        <time>2018-07-17T10:20:26Z</time>
      </trkpt>
      <trkpt lat="62.297842772224" lon="17.460606541551">
        <ele>12</ele>
        <time>2018-07-17T10:20:32Z</time>
      </trkpt>
      <trkpt lat="62.297896416384" lon="17.460769066592">
        <ele>12.8</ele>
        <time>2018-07-17T10:20:37Z</time>
      </trkpt>
      <trkpt lat="62.297951736924" lon="17.460978697911">
        <ele>14</ele>
        <time>2018-07-17T10:20:43Z</time>
      </trkpt>
      <trkpt lat="62.298024910911" lon="17.461197633139">
        <ele>14.4</ele>
        <time>2018-07-17T10:20:49Z</time>
      </trkpt>
      <trkpt lat="62.298114010508" lon="17.461458561686">
        <ele>15</ele>
        <time>2018-07-17T10:20:55Z</time>
      </trkpt>
      <trkpt lat="62.29813731219" lon="17.461496196417">
        <ele>15.2</ele>
        <time>2018-07-17T10:20:56Z</time>
      </trkpt>
      <trkpt lat="62.298221466466" lon="17.461750335625">
        <ele>16</ele>
        <time>2018-07-17T10:21:02Z</time>
      </trkpt>
      <trkpt lat="62.298233787859" lon="17.461791742211">
        <ele>16.2</ele>
        <time>2018-07-17T10:21:03Z</time>
      </trkpt>
      <trkpt lat="62.298320456705" lon="17.46199466801">
        <ele>16.8</ele>
        <time>2018-07-17T10:21:09Z</time>
      </trkpt>
      <trkpt lat="62.298400839126" lon="17.462062142305">
        <ele>17.4</ele>
        <time>2018-07-17T10:21:13Z</time>
      </trkpt>
      <trkpt lat="62.298571410791" lon="17.462124671279">
        <ele>18</ele>
        <time>2018-07-17T10:21:19Z</time>
      </trkpt>
      <trkpt lat="62.298711304702" lon="17.462271773624">
        <ele>18.2</ele>
        <time>2018-07-17T10:21:25Z</time>
      </trkpt>
      <trkpt lat="62.298754136211" lon="17.462319466635">
        <ele>18.6</ele>
        <time>2018-07-17T10:21:27Z</time>
      </trkpt>
      <trkpt lat="62.298899562176" lon="17.462424827118">
        <ele>19</ele>
        <time>2018-07-17T10:21:33Z</time>
      </trkpt>
      <trkpt lat="62.299042473571" lon="17.46244477604">
        <ele>19.4</ele>
        <time>2018-07-17T10:21:39Z</time>
      </trkpt>
      <trkpt lat="62.299093351704" lon="17.462451984474">
        <ele>19.6</ele>
        <time>2018-07-17T10:21:41Z</time>
      </trkpt>
      <trkpt lat="62.299240286411" lon="17.462517866208">
        <ele>20.4</ele>
        <time>2018-07-17T10:21:47Z</time>
      </trkpt>
      <trkpt lat="62.299363835617" lon="17.462457600347">
        <ele>20.6</ele>
        <time>2018-07-17T10:21:53Z</time>
      </trkpt>
      <trkpt lat="62.299405158384" lon="17.462437651425">
        <ele>20.6</ele>
        <time>2018-07-17T10:21:55Z</time>
      </trkpt>
      <trkpt lat="62.299531976531" lon="17.462372188786">
        <ele>21.4</ele>
        <time>2018-07-17T10:22:01Z</time>
      </trkpt>
      <trkpt lat="62.299572042013" lon="17.462336314254">
        <ele>21.8</ele>
        <time>2018-07-17T10:22:03Z</time>
      </trkpt>
      <trkpt lat="62.299678324505" lon="17.462164904399">
        <ele>22.6</ele>
        <time>2018-07-17T10:22:09Z</time>
      </trkpt>
      <trkpt lat="62.299738841823" lon="17.462053257491">
        <ele>23</ele>
        <time>2018-07-17T10:22:12Z</time>
      </trkpt>
      <trkpt lat="62.299830623628" lon="17.461839938136">
        <ele>24</ele>
        <time>2018-07-17T10:22:18Z</time>
      </trkpt>
      <trkpt lat="62.299840346632" lon="17.461802638681">
        <ele>24</ele>
        <time>2018-07-17T10:22:19Z</time>
      </trkpt>
      <trkpt lat="62.299895248077" lon="17.461654865784">
        <ele>25.6</ele>
        <time>2018-07-17T10:22:23Z</time>
      </trkpt>
      <trkpt lat="62.299971439548" lon="17.461452107623">
        <ele>26.4</ele>
        <time>2018-07-17T10:22:29Z</time>
      </trkpt>
      <trkpt lat="62.299997088162" lon="17.46140206768">
        <ele>26.6</ele>
        <time>2018-07-17T10:22:31Z</time>
      </trkpt>
      <trkpt lat="62.300054001263" lon="17.46130399945">
        <ele>27.2</ele>
        <time>2018-07-17T10:22:35Z</time>
      </trkpt>
      <trkpt lat="62.300574936348" lon="17.459921907959">
        <ele>30.6</ele>
        <time>2018-07-17T10:24:04Z</time>
      </trkpt>
      <trkpt lat="62.300672250207" lon="17.459700122885">
        <ele>30.6</ele>
        <time>2018-07-17T10:24:10Z</time>
      </trkpt>
      <trkpt lat="62.300848102469" lon="17.459471129377">
        <ele>31.4</ele>
        <time>2018-07-17T10:24:18Z</time>
      </trkpt>
      <trkpt lat="62.300963437413" lon="17.459340455556">
        <ele>31.8</ele>
        <time>2018-07-17T10:24:23Z</time>
      </trkpt>
      <trkpt lat="62.301087908628" lon="17.459152281901">
        <ele>32.2</ele>
        <time>2018-07-17T10:24:29Z</time>
      </trkpt>
      <trkpt lat="62.301183210831" lon="17.458885569843">
        <ele>32</ele>
        <time>2018-07-17T10:24:35Z</time>
      </trkpt>
      <trkpt lat="62.301277842482" lon="17.458693205238">
        <ele>32.2</ele>
        <time>2018-07-17T10:24:41Z</time>
      </trkpt>
      <trkpt lat="62.301408516303" lon="17.458482735729">
        <ele>32.2</ele>
        <time>2018-07-17T10:24:47Z</time>
      </trkpt>
      <trkpt lat="62.301530137672" lon="17.458307218743">
        <ele>31.8</ele>
        <time>2018-07-17T10:24:53Z</time>
      </trkpt>
      <trkpt lat="62.301645891711" lon="17.45829573554">
        <ele>30.6</ele>
        <time>2018-07-17T10:24:58Z</time>
      </trkpt>
      <trkpt lat="62.301696937482" lon="17.458404616421">
        <ele>29.4</ele>
        <time>2018-07-17T10:25:01Z</time>
      </trkpt>
      <trkpt lat="62.301770698202" lon="17.458672585764">
        <ele>29</ele>
        <time>2018-07-17T10:25:07Z</time>
      </trkpt>
      <trkpt lat="62.301872622106" lon="17.458908368611">
        <ele>28.6</ele>
        <time>2018-07-17T10:25:13Z</time>
      </trkpt>
      <trkpt lat="62.301892487209" lon="17.458941644754">
        <ele>28.4</ele>
        <time>2018-07-17T10:25:14Z</time>
      </trkpt>
      <trkpt lat="62.302038332269" lon="17.459179439257">
        <ele>28.2</ele>
        <time>2018-07-17T10:25:20Z</time>
      </trkpt>
      <trkpt lat="62.302156600878" lon="17.459387226558">
        <ele>29.6</ele>
        <time>2018-07-17T10:25:25Z</time>
      </trkpt>
      <trkpt lat="62.302205551174" lon="17.459462412201">
        <ele>30.6</ele>
        <time>2018-07-17T10:25:27Z</time>
      </trkpt>
      <trkpt lat="62.302278641342" lon="17.45954463864">
        <ele>32</ele>
        <time>2018-07-17T10:25:30Z</time>
      </trkpt>
      <trkpt lat="62.302350306587" lon="17.459632145676">
        <ele>33</ele>
        <time>2018-07-17T10:25:33Z</time>
      </trkpt>
      <trkpt lat="62.302476454182" lon="17.459818475313">
        <ele>33.2</ele>
        <time>2018-07-17T10:25:39Z</time>
      </trkpt>
      <trkpt lat="62.302602015044" lon="17.459974043377">
        <ele>32.2</ele>
        <time>2018-07-17T10:25:45Z</time>
      </trkpt>
      <trkpt lat="62.302742914783" lon="17.460151320562">
        <ele>32</ele>
        <time>2018-07-17T10:25:51Z</time>
      </trkpt>
      <trkpt lat="62.302763953352" lon="17.460180489574">
        <ele>32</ele>
        <time>2018-07-17T10:25:52Z</time>
      </trkpt>
      <trkpt lat="62.302874426794" lon="17.460375787844">
        <ele>31.2</ele>
        <time>2018-07-17T10:25:58Z</time>
      </trkpt>
      <trkpt lat="62.302904350177" lon="17.46051358628">
        <ele>30.8</ele>
        <time>2018-07-17T10:26:01Z</time>
      </trkpt>
      <trkpt lat="62.3029560665" lon="17.460823046028">
        <ele>30.6</ele>
        <time>2018-07-17T10:26:07Z</time>
      </trkpt>
      <trkpt lat="62.302966543875" lon="17.461161004236">
        <ele>30.6</ele>
        <time>2018-07-17T10:26:13Z</time>
      </trkpt>
      <trkpt lat="62.302984648779" lon="17.461487898336">
        <ele>30.8</ele>
        <time>2018-07-17T10:26:19Z</time>
      </trkpt>
      <trkpt lat="62.303097385334" lon="17.461680514398">
        <ele>29.6</ele>
        <time>2018-07-17T10:26:25Z</time>
      </trkpt>
      <trkpt lat="62.30314382106" lon="17.46171638893">
        <ele>28.4</ele>
        <time>2018-07-17T10:26:27Z</time>
      </trkpt>
      <trkpt lat="62.303186736388" lon="17.461737846594">
        <ele>26.6</ele>
        <time>2018-07-17T10:26:29Z</time>
      </trkpt>
      <trkpt lat="62.303209116061" lon="17.461734493834">
        <ele>27.8</ele>
        <time>2018-07-17T10:26:30Z</time>
      </trkpt>
      <trkpt lat="62.303232585381" lon="17.461718735862">
        <ele>26.8</ele>
        <time>2018-07-17T10:26:31Z</time>
      </trkpt>
      <trkpt lat="62.30333744295" lon="17.461597701226">
        <ele>25.4</ele>
        <time>2018-07-17T10:26:35Z</time>
      </trkpt>
      <trkpt lat="62.303406342168" lon="17.461518911366">
        <ele>24.2</ele>
        <time>2018-07-17T10:26:38Z</time>
      </trkpt>
      <trkpt lat="62.303502314923" lon="17.461502734299">
        <ele>23</ele>
        <time>2018-07-17T10:26:42Z</time>
      </trkpt>
      <trkpt lat="62.30352855027" lon="17.461571717336">
        <ele>22.4</ele>
        <time>2018-07-17T10:26:44Z</time>
      </trkpt>
      <trkpt lat="62.303535423428" lon="17.461679089475">
        <ele>22</ele>
        <time>2018-07-17T10:26:46Z</time>
      </trkpt>
      <trkpt lat="62.303551432857" lon="17.461833903168">
        <ele>20.6</ele>
        <time>2018-07-17T10:26:49Z</time>
      </trkpt>
      <trkpt lat="62.30357045977" lon="17.461983017169">
        <ele>19</ele>
        <time>2018-07-17T10:26:52Z</time>
      </trkpt>
      <trkpt lat="62.303600131696" lon="17.462126515297">
        <ele>17.8</ele>
        <time>2018-07-17T10:26:55Z</time>
      </trkpt>
      <trkpt lat="62.303638436979" lon="17.462210334297">
        <ele>16.8</ele>
        <time>2018-07-17T10:26:58Z</time>
      </trkpt>
      <trkpt lat="62.303743629824" lon="17.462203796415">
        <ele>15.6</ele>
        <time>2018-07-17T10:27:02Z</time>
      </trkpt>
      <trkpt lat="62.303820324209" lon="17.462045043229">
        <ele>14.6</ele>
        <time>2018-07-17T10:27:06Z</time>
      </trkpt>
      <trkpt lat="62.303890229255" lon="17.461793250953">
        <ele>14</ele>
        <time>2018-07-17T10:27:12Z</time>
      </trkpt>
      <trkpt lat="62.303984860906" lon="17.461545733446">
        <ele>14.2</ele>
        <time>2018-07-17T10:27:18Z</time>
      </trkpt>
      <trkpt lat="62.304071529752" lon="17.461281452139">
        <ele>15.2</ele>
        <time>2018-07-17T10:27:24Z</time>
      </trkpt>
      <trkpt lat="62.304107907198" lon="17.461130913215">
        <ele>15.8</ele>
        <time>2018-07-17T10:27:27Z</time>
      </trkpt>
      <trkpt lat="62.304163563014" lon="17.460819357992">
        <ele>16.6</ele>
        <time>2018-07-17T10:27:33Z</time>
      </trkpt>
      <trkpt lat="62.304177393149" lon="17.460626574292">
        <ele>16.8</ele>
        <time>2018-07-17T10:27:37Z</time>
      </trkpt>
      <trkpt lat="62.304221062848" lon="17.460312588318">
        <ele>17.6</ele>
        <time>2018-07-17T10:27:43Z</time>
      </trkpt>
      <trkpt lat="62.304299433613" lon="17.460036069437">
        <ele>17.6</ele>
        <time>2018-07-17T10:27:49Z</time>
      </trkpt>
      <trkpt lat="62.304395825463" lon="17.459782014048">
        <ele>16.4</ele>
        <time>2018-07-17T10:27:55Z</time>
      </trkpt>
      <trkpt lat="62.304432035271" lon="17.459700877256">
        <ele>15.8</ele>
        <time>2018-07-17T10:27:57Z</time>
      </trkpt>
      <trkpt lat="62.304503281421" lon="17.459530221772">
        <ele>14.6</ele>
        <time>2018-07-17T10:28:01Z</time>
      </trkpt>
      <trkpt lat="62.304554578649" lon="17.459411198792">
        <ele>13.2</ele>
        <time>2018-07-17T10:28:04Z</time>
      </trkpt>
      <trkpt lat="62.304611743207" lon="17.459280441152">
        <ele>12</ele>
        <time>2018-07-17T10:28:07Z</time>
      </trkpt>
      <trkpt lat="62.304744596322" lon="17.45914482201">
        <ele>11</ele>
        <time>2018-07-17T10:28:13Z</time>
      </trkpt>
      <trkpt lat="62.30487300703" lon="17.459154209738">
        <ele>10</ele>
        <time>2018-07-17T10:28:18Z</time>
      </trkpt>
      <trkpt lat="62.3049928682" lon="17.459250769226">
        <ele>8.8</ele>
        <time>2018-07-17T10:28:23Z</time>
      </trkpt>
      <trkpt lat="62.305068472938" lon="17.459288320138">
        <ele>7.4</ele>
        <time>2018-07-17T10:28:26Z</time>
      </trkpt>
      <trkpt lat="62.305120692175" lon="17.459281614618">
        <ele>6.4</ele>
        <time>2018-07-17T10:28:28Z</time>
      </trkpt>
      <trkpt lat="62.305239715155" lon="17.459111378229">
        <ele>5.4</ele>
        <time>2018-07-17T10:28:33Z</time>
      </trkpt>
      <trkpt lat="62.305315738988" lon="17.458863273989">
        <ele>4.4</ele>
        <time>2018-07-17T10:28:38Z</time>
      </trkpt>
      <trkpt lat="62.305408861897" lon="17.4586259824">
        <ele>3.8</ele>
        <time>2018-07-17T10:28:44Z</time>
      </trkpt>
      <trkpt lat="62.305447334818" lon="17.458475527295">
        <ele>3.4</ele>
        <time>2018-07-17T10:28:48Z</time>
      </trkpt>
      <trkpt lat="62.305482287341" lon="17.458227590693">
        <ele>2</ele>
        <time>2018-07-17T10:28:53Z</time>
      </trkpt>
      <trkpt lat="62.30548488573" lon="17.458103119478">
        <ele>1</ele>
        <time>2018-07-17T10:28:57Z</time>
      </trkpt>
      <trkpt lat="62.305475917097" lon="17.457894577806">
        <ele>0</ele>
        <time>2018-07-17T10:29:01Z</time>
      </trkpt>
      <trkpt lat="62.305438366185" lon="17.457624010074">
        <ele>0</ele>
        <time>2018-07-17T10:29:06Z</time>
      </trkpt>
      <trkpt lat="62.305370640433" lon="17.4572848784">
        <ele>0</ele>
        <time>2018-07-17T10:29:12Z</time>
      </trkpt>
      <trkpt lat="62.3053532899" lon="17.457161832108">
        <ele>0</ele>
        <time>2018-07-17T10:29:14Z</time>
      </trkpt>
      <trkpt lat="62.305329401485" lon="17.456846756487">
        <ele>0</ele>
        <time>2018-07-17T10:29:20Z</time>
      </trkpt>
      <trkpt lat="62.305362174714" lon="17.456542828793">
        <ele>0</ele>
        <time>2018-07-17T10:29:26Z</time>
      </trkpt>
      <trkpt lat="62.30543040338" lon="17.456242589135">
        <ele>0</ele>
        <time>2018-07-17T10:29:32Z</time>
      </trkpt>
      <trkpt lat="62.30548572392" lon="17.456001190415">
        <ele>0</ele>
        <time>2018-07-17T10:29:38Z</time>
      </trkpt>
      <trkpt lat="62.305468876301" lon="17.455831205483">
        <ele>0</ele>
        <time>2018-07-17T10:29:43Z</time>
      </trkpt>
      <trkpt lat="62.305441048393" lon="17.455668345166">
        <ele>0</ele>
        <time>2018-07-17T10:29:47Z</time>
      </trkpt>
      <trkpt lat="62.305421099471" lon="17.45551797388">
        <ele>1</ele>
        <time>2018-07-17T10:29:51Z</time>
      </trkpt>
      <trkpt lat="62.30543962347" lon="17.455316137728">
        <ele>2</ele>
        <time>2018-07-17T10:29:56Z</time>
      </trkpt>
      <trkpt lat="62.305492597078" lon="17.455106674047">
        <ele>3</ele>
        <time>2018-07-17T10:30:01Z</time>
      </trkpt>
      <trkpt lat="62.305560490468" lon="17.454858485988">
        <ele>4</ele>
        <time>2018-07-17T10:30:07Z</time>
      </trkpt>
      <trkpt lat="62.305571806033" lon="17.45481389428">
        <ele>4.2</ele>
        <time>2018-07-17T10:30:08Z</time>
      </trkpt>
      <trkpt lat="62.305759979688" lon="17.454417933324">
        <ele>5.2</ele>
        <time>2018-07-17T10:30:19Z</time>
      </trkpt>
      <trkpt lat="62.305880679048" lon="17.4542841582">
        <ele>5.8</ele>
        <time>2018-07-17T10:30:25Z</time>
      </trkpt>
      <trkpt lat="62.30599450525" lon="17.454131859077">
        <ele>5.8</ele>
        <time>2018-07-17T10:30:31Z</time>
      </trkpt>
      <trkpt lat="62.306030966515" lon="17.454077628184">
        <ele>6.2</ele>
        <time>2018-07-17T10:30:33Z</time>
      </trkpt>
      <trkpt lat="62.306149821857" lon="17.45388853252">
        <ele>6.6</ele>
        <time>2018-07-17T10:30:39Z</time>
      </trkpt>
      <trkpt lat="62.306221403283" lon="17.453684181798">
        <ele>7.2</ele>
        <time>2018-07-17T10:30:45Z</time>
      </trkpt>
      <trkpt lat="62.306237412712" lon="17.453680493762">
        <ele>7.4</ele>
        <time>2018-07-17T10:30:46Z</time>
      </trkpt>
      <trkpt lat="62.306253673598" lon="17.45367395588">
        <ele>7.6</ele>
        <time>2018-07-17T10:30:47Z</time>
      </trkpt>
      <trkpt lat="62.306350652181" lon="17.453567841026">
        <ele>8.4</ele>
        <time>2018-07-17T10:30:53Z</time>
      </trkpt>
      <trkpt lat="62.306363979402" lon="17.453552669787">
        <ele>8.4</ele>
        <time>2018-07-17T10:30:54Z</time>
      </trkpt>
      <trkpt lat="62.306462802003" lon="17.453437753938">
        <ele>7.6</ele>
        <time>2018-07-17T10:31:00Z</time>
      </trkpt>
      <trkpt lat="62.306502532209" lon="17.45337304567">
        <ele>7.4</ele>
        <time>2018-07-17T10:31:04Z</time>
      </trkpt>
      <trkpt lat="62.306575203282" lon="17.453298195303">
        <ele>7.4</ele>
        <time>2018-07-17T10:31:09Z</time>
      </trkpt>
      <trkpt lat="62.306632032564" lon="17.453208006059">
        <ele>7.6</ele>
        <time>2018-07-17T10:31:13Z</time>
      </trkpt>
      <trkpt lat="62.306724401102" lon="17.453029555408">
        <ele>7.6</ele>
        <time>2018-07-17T10:31:19Z</time>
      </trkpt>
      <trkpt lat="62.30681090231" lon="17.452915896844">
        <ele>7.4</ele>
        <time>2018-07-17T10:31:25Z</time>
      </trkpt>
      <trkpt lat="62.306881897003" lon="17.452871305136">
        <ele>7.2</ele>
        <time>2018-07-17T10:31:28Z</time>
      </trkpt>
      <trkpt lat="62.306941073217" lon="17.452794191656">
        <ele>7</ele>
        <time>2018-07-17T10:31:31Z</time>
      </trkpt>
      <trkpt lat="62.30704727189" lon="17.452663601654">
        <ele>7</ele>
        <time>2018-07-17T10:31:37Z</time>
      </trkpt>
      <trkpt lat="62.307078117282" lon="17.452680281635">
        <ele>7.4</ele>
        <time>2018-07-17T10:31:39Z</time>
      </trkpt>
      <trkpt lat="62.307152632373" lon="17.452703164222">
        <ele>7.2</ele>
        <time>2018-07-17T10:31:43Z</time>
      </trkpt>
      <trkpt lat="62.307210383664" lon="17.452723783696">
        <ele>6.6</ele>
        <time>2018-07-17T10:31:46Z</time>
      </trkpt>
      <trkpt lat="62.307231086957" lon="17.452752617432">
        <ele>6.2</ele>
        <time>2018-07-17T10:31:47Z</time>
      </trkpt>
      <trkpt lat="62.307309373903" lon="17.452831826387">
        <ele>5.2</ele>
        <time>2018-07-17T10:31:50Z</time>
      </trkpt>
      <trkpt lat="62.307480448482" lon="17.452957554887">
        <ele>4.8</ele>
        <time>2018-07-17T10:31:56Z</time>
      </trkpt>
      <trkpt lat="62.307552365184" lon="17.452951268462">
        <ele>4</ele>
        <time>2018-07-17T10:31:59Z</time>
      </trkpt>
      <trkpt lat="62.307618582194" lon="17.452942886562">
        <ele>3</ele>
        <time>2018-07-17T10:32:02Z</time>
      </trkpt>
      <trkpt lat="62.307677423132" lon="17.452930062255">
        <ele>2.4</ele>
        <time>2018-07-17T10:32:05Z</time>
      </trkpt>
      <trkpt lat="62.307721009012" lon="17.453026454105">
        <ele>2.2</ele>
        <time>2018-07-17T10:32:08Z</time>
      </trkpt>
      <trkpt lat="62.307823016735" lon="17.45310063392">
        <ele>1.8</ele>
        <time>2018-07-17T10:32:13Z</time>
      </trkpt>
      <trkpt lat="62.307949667244" lon="17.453247987722">
        <ele>2</ele>
        <time>2018-07-17T10:32:19Z</time>
      </trkpt>
      <trkpt lat="62.308077994133" lon="17.45319534939">
        <ele>2.6</ele>
        <time>2018-07-17T10:32:25Z</time>
      </trkpt>
      <trkpt lat="62.308115545045" lon="17.453203479833">
        <ele>2.6</ele>
        <time>2018-07-17T10:32:27Z</time>
      </trkpt>
      <trkpt lat="62.308227108134" lon="17.453287717928">
        <ele>1.8</ele>
        <time>2018-07-17T10:32:33Z</time>
      </trkpt>
      <trkpt lat="62.308269101453" lon="17.453261482581">
        <ele>1.4</ele>
        <time>2018-07-17T10:32:35Z</time>
      </trkpt>
      <trkpt lat="62.30828024938" lon="17.453206078222">
        <ele>0.8</ele>
        <time>2018-07-17T10:32:37Z</time>
      </trkpt>
      <trkpt lat="62.308326768925" lon="17.452912627903">
        <ele>1.4</ele>
        <time>2018-07-17T10:32:43Z</time>
      </trkpt>
      <trkpt lat="62.308384939311" lon="17.45262538019">
        <ele>2.2</ele>
        <time>2018-07-17T10:32:49Z</time>
      </trkpt>
      <trkpt lat="62.308418131635" lon="17.452487162659">
        <ele>2.8</ele>
        <time>2018-07-17T10:32:52Z</time>
      </trkpt>
      <trkpt lat="62.308513182381" lon="17.452266970146">
        <ele>3.2</ele>
        <time>2018-07-17T10:32:58Z</time>
      </trkpt>
      <trkpt lat="62.308604964186" lon="17.452022134847">
        <ele>3</ele>
        <time>2018-07-17T10:33:04Z</time>
      </trkpt>
      <trkpt lat="62.308667241703" lon="17.451747962898">
        <ele>3.6</ele>
        <time>2018-07-17T10:33:10Z</time>
      </trkpt>
      <trkpt lat="62.308718203655" lon="17.451505306893">
        <ele>3.8</ele>
        <time>2018-07-17T10:33:16Z</time>
      </trkpt>
      <trkpt lat="62.308726417917" lon="17.451454931674">
        <ele>4</ele>
        <time>2018-07-17T10:33:17Z</time>
      </trkpt>
      <trkpt lat="62.308795400954" lon="17.451145639564">
        <ele>5</ele>
        <time>2018-07-17T10:33:23Z</time>
      </trkpt>
      <trkpt lat="62.308864300172" lon="17.450841041318">
        <ele>6.2</ele>
        <time>2018-07-17T10:33:29Z</time>
      </trkpt>
      <trkpt lat="62.308900761437" lon="17.45066401559">
        <ele>7.2</ele>
        <time>2018-07-17T10:33:33Z</time>
      </trkpt>
      <trkpt lat="62.308940240186" lon="17.450399399007">
        <ele>8</ele>
        <time>2018-07-17T10:33:39Z</time>
      </trkpt>
      <trkpt lat="62.308945856059" lon="17.450359165887">
        <ele>8.2</ele>
        <time>2018-07-17T10:33:40Z</time>
      </trkpt>
      <trkpt lat="62.308983993704" lon="17.450095303675">
        <ele>9.4</ele>
        <time>2018-07-17T10:33:46Z</time>
      </trkpt>
      <trkpt lat="62.309052473827" lon="17.449768996308">
        <ele>9.6</ele>
        <time>2018-07-17T10:33:52Z</time>
      </trkpt>
      <trkpt lat="62.309159007776" lon="17.449477557645">
        <ele>9.8</ele>
        <time>2018-07-17T10:33:58Z</time>
      </trkpt>
      <trkpt lat="62.309278617489" lon="17.44924244535">
        <ele>9.6</ele>
        <time>2018-07-17T10:34:04Z</time>
      </trkpt>
      <trkpt lat="62.309393784795" lon="17.449061228672">
        <ele>9.8</ele>
        <time>2018-07-17T10:34:10Z</time>
      </trkpt>
      <trkpt lat="62.309505096427" lon="17.448922675865">
        <ele>9.6</ele>
        <time>2018-07-17T10:34:16Z</time>
      </trkpt>
      <trkpt lat="62.309626550158" lon="17.44873701678">
        <ele>10</ele>
        <time>2018-07-17T10:34:22Z</time>
      </trkpt>
      <trkpt lat="62.309668208201" lon="17.448680271317">
        <ele>10.4</ele>
        <time>2018-07-17T10:34:24Z</time>
      </trkpt>
      <trkpt lat="62.309768371906" lon="17.448521099036">
        <ele>10.8</ele>
        <time>2018-07-17T10:34:30Z</time>
      </trkpt>
      <trkpt lat="62.309884712678" lon="17.448332254829">
        <ele>11.6</ele>
        <time>2018-07-17T10:34:36Z</time>
      </trkpt>
      <trkpt lat="62.309999544708" lon="17.448161096431">
        <ele>10.4</ele>
        <time>2018-07-17T10:34:42Z</time>
      </trkpt>
      <trkpt lat="62.310118483869" lon="17.448003181435">
        <ele>9.2</ele>
        <time>2018-07-17T10:34:48Z</time>
      </trkpt>
      <trkpt lat="62.31025334864" lon="17.447825485155">
        <ele>8.4</ele>
        <time>2018-07-17T10:34:54Z</time>
      </trkpt>
      <trkpt lat="62.310274638666" lon="17.447803021663">
        <ele>8.2</ele>
        <time>2018-07-17T10:34:55Z</time>
      </trkpt>
      <trkpt lat="62.310408078514" lon="17.447631695627">
        <ele>7.6</ele>
        <time>2018-07-17T10:35:01Z</time>
      </trkpt>
      <trkpt lat="62.310468679651" lon="17.447541506383">
        <ele>7</ele>
        <time>2018-07-17T10:35:04Z</time>
      </trkpt>
      <trkpt lat="62.310606478087" lon="17.447367498139">
        <ele>6.8</ele>
        <time>2018-07-17T10:35:10Z</time>
      </trkpt>
      <trkpt lat="62.310747210188" lon="17.447236153766">
        <ele>5.8</ele>
        <time>2018-07-17T10:35:16Z</time>
      </trkpt>
      <trkpt lat="62.310883751339" lon="17.447082513539">
        <ele>5.2</ele>
        <time>2018-07-17T10:35:22Z</time>
      </trkpt>
      <trkpt lat="62.310929097418" lon="17.447027192999">
        <ele>4.6</ele>
        <time>2018-07-17T10:35:24Z</time>
      </trkpt>
      <trkpt lat="62.311046946932" lon="17.446879671559">
        <ele>3.4</ele>
        <time>2018-07-17T10:35:29Z</time>
      </trkpt>
      <trkpt lat="62.31118876868" lon="17.446702059098">
        <ele>2.4</ele>
        <time>2018-07-17T10:35:35Z</time>
      </trkpt>
      <trkpt lat="62.311330003695" lon="17.446566272318">
        <ele>1.6</ele>
        <time>2018-07-17T10:35:41Z</time>
      </trkpt>
      <trkpt lat="62.311402423311" lon="17.446504497715">
        <ele>1.4</ele>
        <time>2018-07-17T10:35:44Z</time>
      </trkpt>
      <trkpt lat="62.311546005258" lon="17.446349684022">
        <ele>0.6</ele>
        <time>2018-07-17T10:35:50Z</time>
      </trkpt>
      <trkpt lat="62.311697717648" lon="17.446221189495">
        <ele>0.2</ele>
        <time>2018-07-17T10:35:56Z</time>
      </trkpt>
      <trkpt lat="62.311842473061" lon="17.446151955001">
        <ele>0.2</ele>
        <time>2018-07-17T10:36:02Z</time>
      </trkpt>
      <trkpt lat="62.311972141054" lon="17.446084480706">
        <ele>0</ele>
        <time>2018-07-17T10:36:08Z</time>
      </trkpt>
      <trkpt lat="62.312109436576" lon="17.445938216551">
        <ele>0.2</ele>
        <time>2018-07-17T10:36:14Z</time>
      </trkpt>
      <trkpt lat="62.312247905564" lon="17.445822713969">
        <ele>0.6</ele>
        <time>2018-07-17T10:36:20Z</time>
      </trkpt>
      <trkpt lat="62.31237983667" lon="17.445732692363">
        <ele>1.4</ele>
        <time>2018-07-17T10:36:26Z</time>
      </trkpt>
      <trkpt lat="62.312495255433" lon="17.445616603048">
        <ele>1.8</ele>
        <time>2018-07-17T10:36:32Z</time>
      </trkpt>
      <trkpt lat="62.312636406629" lon="17.445486683598">
        <ele>1.8</ele>
        <time>2018-07-17T10:36:38Z</time>
      </trkpt>
      <trkpt lat="62.312796500919" lon="17.445369923731">
        <ele>2.4</ele>
        <time>2018-07-17T10:36:45Z</time>
      </trkpt>
      <trkpt lat="62.312852659649" lon="17.445337401959">
        <ele>2.4</ele>
        <time>2018-07-17T10:36:47Z</time>
      </trkpt>
      <trkpt lat="62.313024991513" lon="17.44519734041">
        <ele>3</ele>
        <time>2018-07-17T10:36:53Z</time>
      </trkpt>
      <trkpt lat="62.313169830745" lon="17.445074377937">
        <ele>2.8</ele>
        <time>2018-07-17T10:36:59Z</time>
      </trkpt>
      <trkpt lat="62.313338642211" lon="17.44495426531">
        <ele>3.2</ele>
        <time>2018-07-17T10:37:05Z</time>
      </trkpt>
      <trkpt lat="62.313496892483" lon="17.444852341406">
        <ele>3</ele>
        <time>2018-07-17T10:37:11Z</time>
      </trkpt>
      <trkpt lat="62.313657070592" lon="17.444769444415">
        <ele>3</ele>
        <time>2018-07-17T10:37:17Z</time>
      </trkpt>
      <trkpt lat="62.313802748014" lon="17.44471789573">
        <ele>2.8</ele>
        <time>2018-07-17T10:37:23Z</time>
      </trkpt>
      <trkpt lat="62.31395982482" lon="17.444625611011">
        <ele>2.6</ele>
        <time>2018-07-17T10:37:29Z</time>
      </trkpt>
      <trkpt lat="62.314080943275" lon="17.444509354058">
        <ele>2.2</ele>
        <time>2018-07-17T10:37:35Z</time>
      </trkpt>
      <trkpt lat="62.314196278219" lon="17.444420422099">
        <ele>2.4</ele>
        <time>2018-07-17T10:37:41Z</time>
      </trkpt>
      <trkpt lat="62.314307589851" lon="17.444348421578">
        <ele>2.2</ele>
        <time>2018-07-17T10:37:47Z</time>
      </trkpt>
      <trkpt lat="62.314440610604" lon="17.444270889003">
        <ele>2.6</ele>
        <time>2018-07-17T10:37:53Z</time>
      </trkpt>
      <trkpt lat="62.314572206434" lon="17.444175670619">
        <ele>2.8</ele>
        <time>2018-07-17T10:37:59Z</time>
      </trkpt>
      <trkpt lat="62.314733977104" lon="17.444062012055">
        <ele>3</ele>
        <time>2018-07-17T10:38:05Z</time>
      </trkpt>
      <trkpt lat="62.314909242633" lon="17.443926812008">
        <ele>3</ele>
        <time>2018-07-17T10:38:11Z</time>
      </trkpt>
      <trkpt lat="62.314958528205" lon="17.443881717386">
        <ele>3.4</ele>
        <time>2018-07-17T10:38:13Z</time>
      </trkpt>
      <trkpt lat="62.31510730693" lon="17.443740230914">
        <ele>3.2</ele>
        <time>2018-07-17T10:38:19Z</time>
      </trkpt>
      <trkpt lat="62.3152271681" lon="17.443506375904">
        <ele>3.6</ele>
        <time>2018-07-17T10:38:25Z</time>
      </trkpt>
      <trkpt lat="62.315351471677" lon="17.443291380169">
        <ele>4.4</ele>
        <time>2018-07-17T10:38:31Z</time>
      </trkpt>
      <trkpt lat="62.315439900722" lon="17.443130950603">
        <ele>4.6</ele>
        <time>2018-07-17T10:38:35Z</time>
      </trkpt>
      <trkpt lat="62.315579710814" lon="17.442925510234">
        <ele>5.2</ele>
        <time>2018-07-17T10:38:41Z</time>
      </trkpt>
      <trkpt lat="62.315717928345" lon="17.442726775385">
        <ele>5.2</ele>
        <time>2018-07-17T10:38:47Z</time>
      </trkpt>
      <trkpt lat="62.315840304085" lon="17.442452351979">
        <ele>5.8</ele>
        <time>2018-07-17T10:38:53Z</time>
      </trkpt>
      <trkpt lat="62.315950274613" lon="17.442212713458">
        <ele>6.2</ele>
        <time>2018-07-17T10:38:59Z</time>
      </trkpt>
      <trkpt lat="62.316055970372" lon="17.44190157733">
        <ele>6.6</ele>
        <time>2018-07-17T10:39:05Z</time>
      </trkpt>
      <trkpt lat="62.316072650353" lon="17.441852543215">
        <ele>6.8</ele>
        <time>2018-07-17T10:39:06Z</time>
      </trkpt>
      <trkpt lat="62.316136101336" lon="17.441631596331">
        <ele>7.8</ele>
        <time>2018-07-17T10:39:11Z</time>
      </trkpt>
      <trkpt lat="62.316216483757" lon="17.44139782514">
        <ele>8.4</ele>
        <time>2018-07-17T10:39:17Z</time>
      </trkpt>
      <trkpt lat="62.316262835664" lon="17.441295230684">
        <ele>9</ele>
        <time>2018-07-17T10:39:20Z</time>
      </trkpt>
      <trkpt lat="62.316350594157" lon="17.441109152504">
        <ele>10</ele>
        <time>2018-07-17T10:39:26Z</time>
      </trkpt>
      <trkpt lat="62.316361909722" lon="17.441077720379">
        <ele>10.2</ele>
        <time>2018-07-17T10:39:27Z</time>
      </trkpt>
      <trkpt lat="62.316457128106" lon="17.440855180934">
        <ele>10.8</ele>
        <time>2018-07-17T10:39:33Z</time>
      </trkpt>
      <trkpt lat="62.316577240733" lon="17.440632725308">
        <ele>11</ele>
        <time>2018-07-17T10:39:39Z</time>
      </trkpt>
      <trkpt lat="62.316644463571" lon="17.44052275478">
        <ele>11.4</ele>
        <time>2018-07-17T10:39:42Z</time>
      </trkpt>
      <trkpt lat="62.316774383021" lon="17.440307759045">
        <ele>11.8</ele>
        <time>2018-07-17T10:39:48Z</time>
      </trkpt>
      <trkpt lat="62.316895417657" lon="17.440084046134">
        <ele>12.4</ele>
        <time>2018-07-17T10:39:54Z</time>
      </trkpt>
      <trkpt lat="62.317005891099" lon="17.439887490579">
        <ele>12.4</ele>
        <time>2018-07-17T10:40:00Z</time>
      </trkpt>
      <trkpt lat="62.317135139997" lon="17.439681128201">
        <ele>12.8</ele>
        <time>2018-07-17T10:40:06Z</time>
      </trkpt>
      <trkpt lat="62.317260868497" lon="17.439493960374">
        <ele>13.6</ele>
        <time>2018-07-17T10:40:12Z</time>
      </trkpt>
      <trkpt lat="62.317388524834" lon="17.439349372599">
        <ele>14.4</ele>
        <time>2018-07-17T10:40:18Z</time>
      </trkpt>
      <trkpt lat="62.317456418224" lon="17.439247700152">
        <ele>14.6</ele>
        <time>2018-07-17T10:40:21Z</time>
      </trkpt>
      <trkpt lat="62.317586924407" lon="17.439042343602">
        <ele>15</ele>
        <time>2018-07-17T10:40:27Z</time>
      </trkpt>
      <trkpt lat="62.317694631822" lon="17.438871352842">
        <ele>15.4</ele>
        <time>2018-07-17T10:40:32Z</time>
      </trkpt>
      <trkpt lat="62.31774089991" lon="17.439003703043">
        <ele>15</ele>
        <time>2018-07-17T10:40:59Z</time>
      </trkpt>
      <trkpt lat="62.317755316778" lon="17.439001272292">
        <ele>15</ele>
        <time>2018-07-17T10:41:00Z</time>
      </trkpt>
      <trkpt lat="62.317789766387" lon="17.439038823204">
        <ele>15.2</ele>
        <time>2018-07-17T10:41:02Z</time>
      </trkpt>
      <trkpt lat="62.317883140753" lon="17.439331770609">
        <ele>15.2</ele>
        <time>2018-07-17T10:41:08Z</time>
      </trkpt>
      <trkpt lat="62.317943909528" lon="17.439633519009">
        <ele>14.2</ele>
        <time>2018-07-17T10:41:14Z</time>
      </trkpt>
      <trkpt lat="62.317971150703" lon="17.43979772043">
        <ele>13.4</ele>
        <time>2018-07-17T10:41:17Z</time>
      </trkpt>
      <trkpt lat="62.318035188419" lon="17.44011455625">
        <ele>12.6</ele>
        <time>2018-07-17T10:41:23Z</time>
      </trkpt>
      <trkpt lat="62.318048431821" lon="17.44016736222">
        <ele>12.4</ele>
        <time>2018-07-17T10:41:24Z</time>
      </trkpt>
      <trkpt lat="62.318112301899" lon="17.440347740708">
        <ele>11.4</ele>
        <time>2018-07-17T10:41:28Z</time>
      </trkpt>
      <trkpt lat="62.318227636843" lon="17.440548068118">
        <ele>10.6</ele>
        <time>2018-07-17T10:41:34Z</time>
      </trkpt>
      <trkpt lat="62.318291255464" lon="17.440614536585">
        <ele>10.2</ele>
        <time>2018-07-17T10:41:37Z</time>
      </trkpt>
      <trkpt lat="62.318397454137" lon="17.440806063">
        <ele>9.2</ele>
        <time>2018-07-17T10:41:43Z</time>
      </trkpt>
      <trkpt lat="62.318428970081" lon="17.440999936347">
        <ele>8.2</ele>
        <time>2018-07-17T10:41:47Z</time>
      </trkpt>
      <trkpt lat="62.31842318657" lon="17.441314425235">
        <ele>7.2</ele>
        <time>2018-07-17T10:41:53Z</time>
      </trkpt>
      <trkpt lat="62.318422013104" lon="17.441370332508">
        <ele>7.2</ele>
        <time>2018-07-17T10:41:54Z</time>
      </trkpt>
      <trkpt lat="62.31840055544" lon="17.441700579368">
        <ele>6</ele>
        <time>2018-07-17T10:42:00Z</time>
      </trkpt>
      <trkpt lat="62.318368620401" lon="17.442032754065">
        <ele>5.2</ele>
        <time>2018-07-17T10:42:06Z</time>
      </trkpt>
      <trkpt lat="62.318350180221" lon="17.442148508104">
        <ele>5</ele>
        <time>2018-07-17T10:42:08Z</time>
      </trkpt>
      <trkpt lat="62.318296200785" lon="17.442490154348">
        <ele>4</ele>
        <time>2018-07-17T10:42:14Z</time>
      </trkpt>
      <trkpt lat="62.31828823798" lon="17.442541535395">
        <ele>3.8</ele>
        <time>2018-07-17T10:42:15Z</time>
      </trkpt>
      <trkpt lat="62.318254878018" lon="17.442833393153">
        <ele>2.8</ele>
        <time>2018-07-17T10:42:21Z</time>
      </trkpt>
      <trkpt lat="62.318346408366" lon="17.443092896777">
        <ele>1.8</ele>
        <time>2018-07-17T10:42:27Z</time>
      </trkpt>
      <trkpt lat="62.318418744163" lon="17.443169674981">
        <ele>1.6</ele>
        <time>2018-07-17T10:42:30Z</time>
      </trkpt>
      <trkpt lat="62.318581939756" lon="17.443301270811">
        <ele>0.8</ele>
        <time>2018-07-17T10:42:36Z</time>
      </trkpt>
      <trkpt lat="62.318686126773" lon="17.44340612838">
        <ele>0.4</ele>
        <time>2018-07-17T10:42:40Z</time>
      </trkpt>
      <trkpt lat="62.318748069014" lon="17.443498916013">
        <ele>0.2</ele>
        <time>2018-07-17T10:42:44Z</time>
      </trkpt>
      <trkpt lat="62.318581772118" lon="17.443867300518">
        <ele>0</ele>
        <time>2018-07-17T10:43:34Z</time>
      </trkpt>
      <trkpt lat="62.318628207844" lon="17.443701422717">
        <ele>0</ele>
        <time>2018-07-17T10:43:38Z</time>
      </trkpt>
      <trkpt lat="62.318739770933" lon="17.443497658728">
        <ele>0</ele>
        <time>2018-07-17T10:43:44Z</time>
      </trkpt>
    </trkseg>
  </trk>
</gpx>